<?xml version="1.0" encoding="UTF-8"?>
<gpx version="1.1" creator="https://www.youtrack.es" xsi:schemaLocation="http://www.topografix.com/GPX/1/1 http://www.topografix.com/GPX/1/1/gpx.xsd http://www.garmin.com/xmlschemas/GpxExtensions/v3 http://www.garmin.com/xmlschemas/GpxExtensionsv3.xsd http://www.garmin.com/xmlschemas/TrackPointExtension/v1 http://www.garmin.com/xmlschemas/TrackPointExtensionv1.xsd" xmlns:gpxtpx="http://www.garmin.com/xmlschemas/TrackPointExtension/v1" xmlns:gpxx="http://www.garmin.com/xmlschemas/GpxExtensions/v3" xmlns:xsi="http://www.w3.org/2001/XMLSchema-instance">
  <metadata>
    <author>
      <name>jairo beltran</name>
      <email id="jaibega" domain="gmail.com"/>
    </author>
    <link href="https://www.youtrack.es">
      <text>YouTrack.es</text>
    </link>
    <time>2026-05-09T01:20:27Z</time>
  </metadata>
  <trk>
    <src>https://www.youtrack.es</src>
    <link href="https://www.youtrack.es/ruta/1271-hhh">
      <text>YouTrack.es</text>
    </link>
    <trkseg>
      <trkpt lat="4.6588970" lon="-74.1051520">
        <ele>2553.1</ele>
        <time>2018-07-10T03:11:55Z</time>
      </trkpt>
      <trkpt lat="4.6589970" lon="-74.1049520">
        <ele>2554.0</ele>
        <time>2018-07-10T03:12:30Z</time>
      </trkpt>
      <trkpt lat="4.6591370" lon="-74.1048380">
        <ele>2554.2</ele>
        <time>2018-07-10T03:12:52Z</time>
      </trkpt>
      <trkpt lat="4.6589570" lon="-74.1048700">
        <ele>2553.4</ele>
        <time>2018-07-10T03:13:04Z</time>
      </trkpt>
      <trkpt lat="4.6588300" lon="-74.1047200">
        <ele>2553.7</ele>
        <time>2018-07-10T03:13:11Z</time>
      </trkpt>
      <trkpt lat="4.6586970" lon="-74.1045620">
        <ele>2554.0</ele>
        <time>2018-07-10T03:13:17Z</time>
      </trkpt>
      <trkpt lat="4.6585650" lon="-74.1044000">
        <ele>2553.3</ele>
        <time>2018-07-10T03:13:23Z</time>
      </trkpt>
      <trkpt lat="4.6584280" lon="-74.1042300">
        <ele>2552.6</ele>
        <time>2018-07-10T03:13:28Z</time>
      </trkpt>
      <trkpt lat="4.6583100" lon="-74.1040930">
        <ele>2553.0</ele>
        <time>2018-07-10T03:13:32Z</time>
      </trkpt>
      <trkpt lat="4.6581550" lon="-74.1039600">
        <ele>2553.4</ele>
        <time>2018-07-10T03:13:37Z</time>
      </trkpt>
      <trkpt lat="4.6579720" lon="-74.1038450">
        <ele>2554.0</ele>
        <time>2018-07-10T03:13:42Z</time>
      </trkpt>
      <trkpt lat="4.6578020" lon="-74.1037750">
        <ele>2555.6</ele>
        <time>2018-07-10T03:13:46Z</time>
      </trkpt>
      <trkpt lat="4.6576270" lon="-74.1037250">
        <ele>2554.9</ele>
        <time>2018-07-10T03:13:50Z</time>
      </trkpt>
      <trkpt lat="4.6574120" lon="-74.1036500">
        <ele>2553.8</ele>
        <time>2018-07-10T03:13:54Z</time>
      </trkpt>
      <trkpt lat="4.6572380" lon="-74.1035820">
        <ele>2553.9</ele>
        <time>2018-07-10T03:13:57Z</time>
      </trkpt>
      <trkpt lat="4.6570550" lon="-74.1035350">
        <ele>2554.0</ele>
        <time>2018-07-10T03:14:00Z</time>
      </trkpt>
      <trkpt lat="4.6568750" lon="-74.1034550">
        <ele>2554.9</ele>
        <time>2018-07-10T03:14:03Z</time>
      </trkpt>
      <trkpt lat="4.6566680" lon="-74.1033500">
        <ele>2557.7</ele>
        <time>2018-07-10T03:14:07Z</time>
      </trkpt>
      <trkpt lat="4.6564700" lon="-74.1032880">
        <ele>2559.3</ele>
        <time>2018-07-10T03:14:11Z</time>
      </trkpt>
      <trkpt lat="4.6562750" lon="-74.1032150">
        <ele>2558.7</ele>
        <time>2018-07-10T03:14:15Z</time>
      </trkpt>
      <trkpt lat="4.6560870" lon="-74.1031630">
        <ele>2558.5</ele>
        <time>2018-07-10T03:14:19Z</time>
      </trkpt>
      <trkpt lat="4.6558880" lon="-74.1031100">
        <ele>2558.1</ele>
        <time>2018-07-10T03:14:24Z</time>
      </trkpt>
      <trkpt lat="4.6557580" lon="-74.1029850">
        <ele>2558.0</ele>
        <time>2018-07-10T03:14:30Z</time>
      </trkpt>
      <trkpt lat="4.6556530" lon="-74.1028020">
        <ele>2558.0</ele>
        <time>2018-07-10T03:14:35Z</time>
      </trkpt>
      <trkpt lat="4.6555300" lon="-74.1026620">
        <ele>2558.1</ele>
        <time>2018-07-10T03:14:39Z</time>
      </trkpt>
      <trkpt lat="4.6553600" lon="-74.1025730">
        <ele>2558.1</ele>
        <time>2018-07-10T03:14:43Z</time>
      </trkpt>
      <trkpt lat="4.6551630" lon="-74.1025670">
        <ele>2558.0</ele>
        <time>2018-07-10T03:14:47Z</time>
      </trkpt>
      <trkpt lat="4.6549780" lon="-74.1026550">
        <ele>2555.0</ele>
        <time>2018-07-10T03:14:51Z</time>
      </trkpt>
      <trkpt lat="4.6548180" lon="-74.1027650">
        <ele>2550.0</ele>
        <time>2018-07-10T03:14:55Z</time>
      </trkpt>
      <trkpt lat="4.6546670" lon="-74.1028800">
        <ele>2550.0</ele>
        <time>2018-07-10T03:14:59Z</time>
      </trkpt>
      <trkpt lat="4.6545180" lon="-74.1029920">
        <ele>2550.4</ele>
        <time>2018-07-10T03:15:04Z</time>
      </trkpt>
      <trkpt lat="4.6543550" lon="-74.1031120">
        <ele>2551.3</ele>
        <time>2018-07-10T03:15:11Z</time>
      </trkpt>
      <trkpt lat="4.6541930" lon="-74.1032300">
        <ele>2552.3</ele>
        <time>2018-07-10T03:15:18Z</time>
      </trkpt>
      <trkpt lat="4.6540370" lon="-74.1033530">
        <ele>2552.8</ele>
        <time>2018-07-10T03:15:25Z</time>
      </trkpt>
      <trkpt lat="4.6538870" lon="-74.1034670">
        <ele>2553.1</ele>
        <time>2018-07-10T03:15:31Z</time>
      </trkpt>
      <trkpt lat="4.6537430" lon="-74.1035870">
        <ele>2553.5</ele>
        <time>2018-07-10T03:15:36Z</time>
      </trkpt>
      <trkpt lat="4.6535670" lon="-74.1037170">
        <ele>2553.7</ele>
        <time>2018-07-10T03:15:41Z</time>
      </trkpt>
      <trkpt lat="4.6534050" lon="-74.1038280">
        <ele>2553.6</ele>
        <time>2018-07-10T03:15:45Z</time>
      </trkpt>
      <trkpt lat="4.6532150" lon="-74.1039720">
        <ele>2553.6</ele>
        <time>2018-07-10T03:15:49Z</time>
      </trkpt>
      <trkpt lat="4.6530330" lon="-74.1040970">
        <ele>2553.4</ele>
        <time>2018-07-10T03:15:52Z</time>
      </trkpt>
      <trkpt lat="4.6528120" lon="-74.1042170">
        <ele>2553.0</ele>
        <time>2018-07-10T03:15:55Z</time>
      </trkpt>
      <trkpt lat="4.6526550" lon="-74.1043170">
        <ele>2553.0</ele>
        <time>2018-07-10T03:15:57Z</time>
      </trkpt>
      <trkpt lat="4.6525000" lon="-74.1044200">
        <ele>2552.9</ele>
        <time>2018-07-10T03:15:59Z</time>
      </trkpt>
      <trkpt lat="4.6523450" lon="-74.1045270">
        <ele>2552.3</ele>
        <time>2018-07-10T03:16:01Z</time>
      </trkpt>
      <trkpt lat="4.6521900" lon="-74.1046220">
        <ele>2552.0</ele>
        <time>2018-07-10T03:16:03Z</time>
      </trkpt>
      <trkpt lat="4.6519770" lon="-74.1047670">
        <ele>2552.0</ele>
        <time>2018-07-10T03:16:06Z</time>
      </trkpt>
      <trkpt lat="4.6517620" lon="-74.1049120">
        <ele>2552.1</ele>
        <time>2018-07-10T03:16:09Z</time>
      </trkpt>
      <trkpt lat="4.6515580" lon="-74.1050500">
        <ele>2552.3</ele>
        <time>2018-07-10T03:16:12Z</time>
      </trkpt>
      <trkpt lat="4.6513670" lon="-74.1051870">
        <ele>2552.4</ele>
        <time>2018-07-10T03:16:15Z</time>
      </trkpt>
      <trkpt lat="4.6511880" lon="-74.1053220">
        <ele>2552.4</ele>
        <time>2018-07-10T03:16:18Z</time>
      </trkpt>
      <trkpt lat="4.6510200" lon="-74.1054530">
        <ele>2552.2</ele>
        <time>2018-07-10T03:16:21Z</time>
      </trkpt>
      <trkpt lat="4.6508570" lon="-74.1055870">
        <ele>2551.8</ele>
        <time>2018-07-10T03:16:24Z</time>
      </trkpt>
      <trkpt lat="4.6507000" lon="-74.1057200">
        <ele>2551.0</ele>
        <time>2018-07-10T03:16:27Z</time>
      </trkpt>
      <trkpt lat="4.6505280" lon="-74.1058620">
        <ele>2550.0</ele>
        <time>2018-07-10T03:16:30Z</time>
      </trkpt>
      <trkpt lat="4.6503580" lon="-74.1060070">
        <ele>2550.0</ele>
        <time>2018-07-10T03:16:33Z</time>
      </trkpt>
      <trkpt lat="4.6501920" lon="-74.1061350">
        <ele>2550.1</ele>
        <time>2018-07-10T03:16:36Z</time>
      </trkpt>
      <trkpt lat="4.6500230" lon="-74.1062500">
        <ele>2550.2</ele>
        <time>2018-07-10T03:16:39Z</time>
      </trkpt>
      <trkpt lat="4.6498430" lon="-74.1063800">
        <ele>2550.2</ele>
        <time>2018-07-10T03:16:42Z</time>
      </trkpt>
      <trkpt lat="4.6496520" lon="-74.1065100">
        <ele>2550.4</ele>
        <time>2018-07-10T03:16:45Z</time>
      </trkpt>
      <trkpt lat="4.6494830" lon="-74.1066380">
        <ele>2550.6</ele>
        <time>2018-07-10T03:16:48Z</time>
      </trkpt>
      <trkpt lat="4.6492830" lon="-74.1067970">
        <ele>2550.7</ele>
        <time>2018-07-10T03:16:51Z</time>
      </trkpt>
      <trkpt lat="4.6490930" lon="-74.1069420">
        <ele>2550.8</ele>
        <time>2018-07-10T03:16:54Z</time>
      </trkpt>
      <trkpt lat="4.6489170" lon="-74.1070880">
        <ele>2550.9</ele>
        <time>2018-07-10T03:16:57Z</time>
      </trkpt>
      <trkpt lat="4.6487500" lon="-74.1072350">
        <ele>2551.0</ele>
        <time>2018-07-10T03:17:00Z</time>
      </trkpt>
      <trkpt lat="4.6485820" lon="-74.1073650">
        <ele>2550.4</ele>
        <time>2018-07-10T03:17:03Z</time>
      </trkpt>
      <trkpt lat="4.6484130" lon="-74.1074980">
        <ele>2550.1</ele>
        <time>2018-07-10T03:17:06Z</time>
      </trkpt>
      <trkpt lat="4.6482520" lon="-74.1076270">
        <ele>2550.9</ele>
        <time>2018-07-10T03:17:09Z</time>
      </trkpt>
      <trkpt lat="4.6480830" lon="-74.1077570">
        <ele>2550.9</ele>
        <time>2018-07-10T03:17:12Z</time>
      </trkpt>
      <trkpt lat="4.6479070" lon="-74.1078720">
        <ele>2550.6</ele>
        <time>2018-07-10T03:17:15Z</time>
      </trkpt>
      <trkpt lat="4.6477470" lon="-74.1080030">
        <ele>2550.4</ele>
        <time>2018-07-10T03:17:18Z</time>
      </trkpt>
      <trkpt lat="4.6475870" lon="-74.1081370">
        <ele>2550.2</ele>
        <time>2018-07-10T03:17:21Z</time>
      </trkpt>
      <trkpt lat="4.6474300" lon="-74.1082730">
        <ele>2549.8</ele>
        <time>2018-07-10T03:17:24Z</time>
      </trkpt>
      <trkpt lat="4.6472670" lon="-74.1084250">
        <ele>2549.3</ele>
        <time>2018-07-10T03:17:27Z</time>
      </trkpt>
      <trkpt lat="4.6471020" lon="-74.1085800">
        <ele>2548.9</ele>
        <time>2018-07-10T03:17:30Z</time>
      </trkpt>
      <trkpt lat="4.6469420" lon="-74.1087350">
        <ele>2548.6</ele>
        <time>2018-07-10T03:17:33Z</time>
      </trkpt>
      <trkpt lat="4.6467930" lon="-74.1088900">
        <ele>2549.0</ele>
        <time>2018-07-10T03:17:36Z</time>
      </trkpt>
      <trkpt lat="4.6466500" lon="-74.1090300">
        <ele>2548.8</ele>
        <time>2018-07-10T03:17:39Z</time>
      </trkpt>
      <trkpt lat="4.6465050" lon="-74.1091670">
        <ele>2548.4</ele>
        <time>2018-07-10T03:17:42Z</time>
      </trkpt>
      <trkpt lat="4.6463570" lon="-74.1093150">
        <ele>2547.9</ele>
        <time>2018-07-10T03:17:45Z</time>
      </trkpt>
      <trkpt lat="4.6462030" lon="-74.1094770">
        <ele>2546.9</ele>
        <time>2018-07-10T03:17:48Z</time>
      </trkpt>
      <trkpt lat="4.6460570" lon="-74.1096320">
        <ele>2546.7</ele>
        <time>2018-07-10T03:17:51Z</time>
      </trkpt>
      <trkpt lat="4.6459150" lon="-74.1097830">
        <ele>2546.9</ele>
        <time>2018-07-10T03:17:54Z</time>
      </trkpt>
      <trkpt lat="4.6457850" lon="-74.1099300">
        <ele>2547.1</ele>
        <time>2018-07-10T03:17:57Z</time>
      </trkpt>
      <trkpt lat="4.6456220" lon="-74.1101080">
        <ele>2547.3</ele>
        <time>2018-07-10T03:18:01Z</time>
      </trkpt>
      <trkpt lat="4.6455070" lon="-74.1102600">
        <ele>2547.5</ele>
        <time>2018-07-10T03:18:04Z</time>
      </trkpt>
      <trkpt lat="4.6453650" lon="-74.1103950">
        <ele>2547.8</ele>
        <time>2018-07-10T03:18:07Z</time>
      </trkpt>
      <trkpt lat="4.6452000" lon="-74.1105600">
        <ele>2548.2</ele>
        <time>2018-07-10T03:18:11Z</time>
      </trkpt>
      <trkpt lat="4.6450280" lon="-74.1107220">
        <ele>2548.8</ele>
        <time>2018-07-10T03:18:15Z</time>
      </trkpt>
      <trkpt lat="4.6448550" lon="-74.1108780">
        <ele>2549.7</ele>
        <time>2018-07-10T03:18:19Z</time>
      </trkpt>
      <trkpt lat="4.6447050" lon="-74.1110380">
        <ele>2551.4</ele>
        <time>2018-07-10T03:18:23Z</time>
      </trkpt>
      <trkpt lat="4.6445650" lon="-74.1111930">
        <ele>2552.1</ele>
        <time>2018-07-10T03:18:27Z</time>
      </trkpt>
      <trkpt lat="4.6444250" lon="-74.1113300">
        <ele>2552.7</ele>
        <time>2018-07-10T03:18:31Z</time>
      </trkpt>
      <trkpt lat="4.6443000" lon="-74.1114670">
        <ele>2553.2</ele>
        <time>2018-07-10T03:18:35Z</time>
      </trkpt>
      <trkpt lat="4.6441370" lon="-74.1116180">
        <ele>2553.7</ele>
        <time>2018-07-10T03:18:40Z</time>
      </trkpt>
      <trkpt lat="4.6440080" lon="-74.1117830">
        <ele>2554.0</ele>
        <time>2018-07-10T03:18:44Z</time>
      </trkpt>
      <trkpt lat="4.6438500" lon="-74.1119630">
        <ele>2553.8</ele>
        <time>2018-07-10T03:18:48Z</time>
      </trkpt>
      <trkpt lat="4.6437420" lon="-74.1121120">
        <ele>2553.6</ele>
        <time>2018-07-10T03:18:51Z</time>
      </trkpt>
      <trkpt lat="4.6436330" lon="-74.1122630">
        <ele>2553.4</ele>
        <time>2018-07-10T03:18:54Z</time>
      </trkpt>
      <trkpt lat="4.6434950" lon="-74.1123970">
        <ele>2553.2</ele>
        <time>2018-07-10T03:18:57Z</time>
      </trkpt>
      <trkpt lat="4.6433600" lon="-74.1125220">
        <ele>2553.0</ele>
        <time>2018-07-10T03:19:00Z</time>
      </trkpt>
      <trkpt lat="4.6431970" lon="-74.1126770">
        <ele>2552.8</ele>
        <time>2018-07-10T03:19:04Z</time>
      </trkpt>
      <trkpt lat="4.6430530" lon="-74.1127930">
        <ele>2552.5</ele>
        <time>2018-07-10T03:19:08Z</time>
      </trkpt>
      <trkpt lat="4.6429000" lon="-74.1129180">
        <ele>2552.0</ele>
        <time>2018-07-10T03:19:13Z</time>
      </trkpt>
      <trkpt lat="4.6427580" lon="-74.1130600">
        <ele>2551.3</ele>
        <time>2018-07-10T03:19:17Z</time>
      </trkpt>
      <trkpt lat="4.6425820" lon="-74.1132120">
        <ele>2551.2</ele>
        <time>2018-07-10T03:19:21Z</time>
      </trkpt>
      <trkpt lat="4.6424100" lon="-74.1133780">
        <ele>2551.3</ele>
        <time>2018-07-10T03:19:25Z</time>
      </trkpt>
      <trkpt lat="4.6422820" lon="-74.1135100">
        <ele>2551.3</ele>
        <time>2018-07-10T03:19:28Z</time>
      </trkpt>
      <trkpt lat="4.6421450" lon="-74.1136370">
        <ele>2551.3</ele>
        <time>2018-07-10T03:19:31Z</time>
      </trkpt>
      <trkpt lat="4.6420170" lon="-74.1137730">
        <ele>2551.4</ele>
        <time>2018-07-10T03:19:34Z</time>
      </trkpt>
      <trkpt lat="4.6418720" lon="-74.1139400">
        <ele>2551.4</ele>
        <time>2018-07-10T03:19:38Z</time>
      </trkpt>
      <trkpt lat="4.6417280" lon="-74.1141120">
        <ele>2551.5</ele>
        <time>2018-07-10T03:19:42Z</time>
      </trkpt>
      <trkpt lat="4.6415770" lon="-74.1142730">
        <ele>2551.5</ele>
        <time>2018-07-10T03:19:46Z</time>
      </trkpt>
      <trkpt lat="4.6414380" lon="-74.1144020">
        <ele>2551.7</ele>
        <time>2018-07-10T03:19:49Z</time>
      </trkpt>
      <trkpt lat="4.6413000" lon="-74.1145330">
        <ele>2552.0</ele>
        <time>2018-07-10T03:19:52Z</time>
      </trkpt>
      <trkpt lat="4.6411330" lon="-74.1146830">
        <ele>2552.6</ele>
        <time>2018-07-10T03:19:56Z</time>
      </trkpt>
      <trkpt lat="4.6409700" lon="-74.1148470">
        <ele>2553.0</ele>
        <time>2018-07-10T03:20:00Z</time>
      </trkpt>
      <trkpt lat="4.6408170" lon="-74.1150020">
        <ele>2553.1</ele>
        <time>2018-07-10T03:20:04Z</time>
      </trkpt>
      <trkpt lat="4.6406900" lon="-74.1151420">
        <ele>2553.2</ele>
        <time>2018-07-10T03:20:08Z</time>
      </trkpt>
      <trkpt lat="4.6405420" lon="-74.1152930">
        <ele>2553.3</ele>
        <time>2018-07-10T03:20:13Z</time>
      </trkpt>
      <trkpt lat="4.6404150" lon="-74.1154280">
        <ele>2553.2</ele>
        <time>2018-07-10T03:20:18Z</time>
      </trkpt>
      <trkpt lat="4.6402780" lon="-74.1155620">
        <ele>2553.2</ele>
        <time>2018-07-10T03:20:26Z</time>
      </trkpt>
      <trkpt lat="4.6401520" lon="-74.1157130">
        <ele>2553.6</ele>
        <time>2018-07-10T03:20:32Z</time>
      </trkpt>
      <trkpt lat="4.6400150" lon="-74.1158500">
        <ele>2553.9</ele>
        <time>2018-07-10T03:20:38Z</time>
      </trkpt>
      <trkpt lat="4.6398500" lon="-74.1159720">
        <ele>2554.0</ele>
        <time>2018-07-10T03:20:44Z</time>
      </trkpt>
      <trkpt lat="4.6397250" lon="-74.1161100">
        <ele>2555.1</ele>
        <time>2018-07-10T03:20:51Z</time>
      </trkpt>
      <trkpt lat="4.6395880" lon="-74.1162500">
        <ele>2556.0</ele>
        <time>2018-07-10T03:20:58Z</time>
      </trkpt>
      <trkpt lat="4.6394380" lon="-74.1163850">
        <ele>2556.4</ele>
        <time>2018-07-10T03:21:02Z</time>
      </trkpt>
      <trkpt lat="4.6392970" lon="-74.1165220">
        <ele>2556.7</ele>
        <time>2018-07-10T03:21:06Z</time>
      </trkpt>
      <trkpt lat="4.6391580" lon="-74.1166770">
        <ele>2557.0</ele>
        <time>2018-07-10T03:21:12Z</time>
      </trkpt>
      <trkpt lat="4.6390070" lon="-74.1168220">
        <ele>2556.8</ele>
        <time>2018-07-10T03:21:17Z</time>
      </trkpt>
      <trkpt lat="4.6388530" lon="-74.1169630">
        <ele>2556.6</ele>
        <time>2018-07-10T03:21:22Z</time>
      </trkpt>
      <trkpt lat="4.6387280" lon="-74.1170980">
        <ele>2556.5</ele>
        <time>2018-07-10T03:21:26Z</time>
      </trkpt>
      <trkpt lat="4.6385800" lon="-74.1172470">
        <ele>2556.3</ele>
        <time>2018-07-10T03:21:30Z</time>
      </trkpt>
      <trkpt lat="4.6384400" lon="-74.1173980">
        <ele>2556.1</ele>
        <time>2018-07-10T03:21:34Z</time>
      </trkpt>
      <trkpt lat="4.6383030" lon="-74.1175420">
        <ele>2555.9</ele>
        <time>2018-07-10T03:21:38Z</time>
      </trkpt>
      <trkpt lat="4.6381800" lon="-74.1176920">
        <ele>2555.7</ele>
        <time>2018-07-10T03:21:43Z</time>
      </trkpt>
      <trkpt lat="4.6380570" lon="-74.1178530">
        <ele>2555.3</ele>
        <time>2018-07-10T03:21:50Z</time>
      </trkpt>
      <trkpt lat="4.6379380" lon="-74.1180170">
        <ele>2555.0</ele>
        <time>2018-07-10T03:21:54Z</time>
      </trkpt>
      <trkpt lat="4.6377950" lon="-74.1181700">
        <ele>2555.0</ele>
        <time>2018-07-10T03:21:58Z</time>
      </trkpt>
      <trkpt lat="4.6376470" lon="-74.1183300">
        <ele>2555.0</ele>
        <time>2018-07-10T03:22:02Z</time>
      </trkpt>
      <trkpt lat="4.6375030" lon="-74.1184580">
        <ele>2554.6</ele>
        <time>2018-07-10T03:22:06Z</time>
      </trkpt>
      <trkpt lat="4.6373450" lon="-74.1185980">
        <ele>2554.3</ele>
        <time>2018-07-10T03:22:10Z</time>
      </trkpt>
      <trkpt lat="4.6371970" lon="-74.1187400">
        <ele>2554.0</ele>
        <time>2018-07-10T03:22:14Z</time>
      </trkpt>
      <trkpt lat="4.6370400" lon="-74.1188820">
        <ele>2554.1</ele>
        <time>2018-07-10T03:22:19Z</time>
      </trkpt>
      <trkpt lat="4.6369130" lon="-74.1190320">
        <ele>2554.3</ele>
        <time>2018-07-10T03:22:23Z</time>
      </trkpt>
      <trkpt lat="4.6367600" lon="-74.1191780">
        <ele>2554.3</ele>
        <time>2018-07-10T03:22:27Z</time>
      </trkpt>
      <trkpt lat="4.6365900" lon="-74.1193300">
        <ele>2554.4</ele>
        <time>2018-07-10T03:22:31Z</time>
      </trkpt>
      <trkpt lat="4.6364600" lon="-74.1194550">
        <ele>2554.4</ele>
        <time>2018-07-10T03:22:34Z</time>
      </trkpt>
      <trkpt lat="4.6363050" lon="-74.1195570">
        <ele>2554.5</ele>
        <time>2018-07-10T03:22:37Z</time>
      </trkpt>
      <trkpt lat="4.6361480" lon="-74.1196480">
        <ele>2554.5</ele>
        <time>2018-07-10T03:22:40Z</time>
      </trkpt>
      <trkpt lat="4.6359400" lon="-74.1197430">
        <ele>2554.6</ele>
        <time>2018-07-10T03:22:44Z</time>
      </trkpt>
      <trkpt lat="4.6357230" lon="-74.1198300">
        <ele>2554.6</ele>
        <time>2018-07-10T03:22:48Z</time>
      </trkpt>
      <trkpt lat="4.6355200" lon="-74.1199200">
        <ele>2554.7</ele>
        <time>2018-07-10T03:22:52Z</time>
      </trkpt>
      <trkpt lat="4.6352930" lon="-74.1200030">
        <ele>2554.7</ele>
        <time>2018-07-10T03:22:56Z</time>
      </trkpt>
      <trkpt lat="4.6350820" lon="-74.1200880">
        <ele>2554.8</ele>
        <time>2018-07-10T03:23:00Z</time>
      </trkpt>
      <trkpt lat="4.6348780" lon="-74.1201700">
        <ele>2554.8</ele>
        <time>2018-07-10T03:23:04Z</time>
      </trkpt>
      <trkpt lat="4.6346550" lon="-74.1202600">
        <ele>2554.9</ele>
        <time>2018-07-10T03:23:08Z</time>
      </trkpt>
      <trkpt lat="4.6344720" lon="-74.1203420">
        <ele>2555.0</ele>
        <time>2018-07-10T03:23:11Z</time>
      </trkpt>
      <trkpt lat="4.6342870" lon="-74.1204200">
        <ele>2554.6</ele>
        <time>2018-07-10T03:23:14Z</time>
      </trkpt>
      <trkpt lat="4.6341020" lon="-74.1204920">
        <ele>2553.6</ele>
        <time>2018-07-10T03:23:17Z</time>
      </trkpt>
      <trkpt lat="4.6339180" lon="-74.1205730">
        <ele>2552.4</ele>
        <time>2018-07-10T03:23:20Z</time>
      </trkpt>
      <trkpt lat="4.6337400" lon="-74.1206620">
        <ele>2552.1</ele>
        <time>2018-07-10T03:23:23Z</time>
      </trkpt>
      <trkpt lat="4.6335620" lon="-74.1207430">
        <ele>2552.8</ele>
        <time>2018-07-10T03:23:26Z</time>
      </trkpt>
      <trkpt lat="4.6333950" lon="-74.1208450">
        <ele>2554.1</ele>
        <time>2018-07-10T03:23:29Z</time>
      </trkpt>
      <trkpt lat="4.6332180" lon="-74.1209380">
        <ele>2556.9</ele>
        <time>2018-07-10T03:23:32Z</time>
      </trkpt>
      <trkpt lat="4.6330220" lon="-74.1210200">
        <ele>2557.6</ele>
        <time>2018-07-10T03:23:35Z</time>
      </trkpt>
      <trkpt lat="4.6328230" lon="-74.1210920">
        <ele>2556.5</ele>
        <time>2018-07-10T03:23:38Z</time>
      </trkpt>
      <trkpt lat="4.6326050" lon="-74.1211730">
        <ele>2554.5</ele>
        <time>2018-07-10T03:23:41Z</time>
      </trkpt>
      <trkpt lat="4.6323870" lon="-74.1212580">
        <ele>2554.8</ele>
        <time>2018-07-10T03:23:44Z</time>
      </trkpt>
      <trkpt lat="4.6321820" lon="-74.1213450">
        <ele>2554.9</ele>
        <time>2018-07-10T03:23:47Z</time>
      </trkpt>
      <trkpt lat="4.6319930" lon="-74.1214350">
        <ele>2555.0</ele>
        <time>2018-07-10T03:23:50Z</time>
      </trkpt>
      <trkpt lat="4.6317980" lon="-74.1215250">
        <ele>2555.0</ele>
        <time>2018-07-10T03:23:53Z</time>
      </trkpt>
      <trkpt lat="4.6316100" lon="-74.1216000">
        <ele>2555.1</ele>
        <time>2018-07-10T03:23:56Z</time>
      </trkpt>
      <trkpt lat="4.6314020" lon="-74.1216480">
        <ele>2555.3</ele>
        <time>2018-07-10T03:23:59Z</time>
      </trkpt>
      <trkpt lat="4.6312250" lon="-74.1217100">
        <ele>2555.5</ele>
        <time>2018-07-10T03:24:02Z</time>
      </trkpt>
      <trkpt lat="4.6310570" lon="-74.1217820">
        <ele>2555.7</ele>
        <time>2018-07-10T03:24:05Z</time>
      </trkpt>
      <trkpt lat="4.6308480" lon="-74.1218500">
        <ele>2556.0</ele>
        <time>2018-07-10T03:24:08Z</time>
      </trkpt>
      <trkpt lat="4.6306250" lon="-74.1219300">
        <ele>2556.4</ele>
        <time>2018-07-10T03:24:11Z</time>
      </trkpt>
      <trkpt lat="4.6303980" lon="-74.1220320">
        <ele>2556.9</ele>
        <time>2018-07-10T03:24:14Z</time>
      </trkpt>
      <trkpt lat="4.6301550" lon="-74.1221500">
        <ele>2557.2</ele>
        <time>2018-07-10T03:24:17Z</time>
      </trkpt>
      <trkpt lat="4.6299150" lon="-74.1222570">
        <ele>2557.0</ele>
        <time>2018-07-10T03:24:20Z</time>
      </trkpt>
      <trkpt lat="4.6296900" lon="-74.1223570">
        <ele>2557.0</ele>
        <time>2018-07-10T03:24:23Z</time>
      </trkpt>
      <trkpt lat="4.6294830" lon="-74.1224530">
        <ele>2556.1</ele>
        <time>2018-07-10T03:24:26Z</time>
      </trkpt>
      <trkpt lat="4.6292750" lon="-74.1225220">
        <ele>2555.2</ele>
        <time>2018-07-10T03:24:29Z</time>
      </trkpt>
      <trkpt lat="4.6291030" lon="-74.1225880">
        <ele>2554.4</ele>
        <time>2018-07-10T03:24:32Z</time>
      </trkpt>
      <trkpt lat="4.6289100" lon="-74.1226680">
        <ele>2552.8</ele>
        <time>2018-07-10T03:24:36Z</time>
      </trkpt>
      <trkpt lat="4.6286850" lon="-74.1227520">
        <ele>2549.9</ele>
        <time>2018-07-10T03:24:40Z</time>
      </trkpt>
      <trkpt lat="4.6284670" lon="-74.1228200">
        <ele>2553.3</ele>
        <time>2018-07-10T03:24:44Z</time>
      </trkpt>
      <trkpt lat="4.6282850" lon="-74.1228820">
        <ele>2555.0</ele>
        <time>2018-07-10T03:24:48Z</time>
      </trkpt>
      <trkpt lat="4.6281170" lon="-74.1229530">
        <ele>2555.0</ele>
        <time>2018-07-10T03:24:52Z</time>
      </trkpt>
      <trkpt lat="4.6279350" lon="-74.1230220">
        <ele>2555.0</ele>
        <time>2018-07-10T03:24:56Z</time>
      </trkpt>
      <trkpt lat="4.6277330" lon="-74.1230980">
        <ele>2555.0</ele>
        <time>2018-07-10T03:25:00Z</time>
      </trkpt>
      <trkpt lat="4.6275430" lon="-74.1231580">
        <ele>2554.9</ele>
        <time>2018-07-10T03:25:06Z</time>
      </trkpt>
      <trkpt lat="4.6273480" lon="-74.1232470">
        <ele>2554.8</ele>
        <time>2018-07-10T03:25:10Z</time>
      </trkpt>
      <trkpt lat="4.6271380" lon="-74.1233470">
        <ele>2553.8</ele>
        <time>2018-07-10T03:25:14Z</time>
      </trkpt>
      <trkpt lat="4.6269200" lon="-74.1234300">
        <ele>2553.5</ele>
        <time>2018-07-10T03:25:18Z</time>
      </trkpt>
      <trkpt lat="4.6267520" lon="-74.1234970">
        <ele>2553.5</ele>
        <time>2018-07-10T03:25:21Z</time>
      </trkpt>
      <trkpt lat="4.6265820" lon="-74.1235650">
        <ele>2553.5</ele>
        <time>2018-07-10T03:25:24Z</time>
      </trkpt>
      <trkpt lat="4.6263650" lon="-74.1236620">
        <ele>2553.5</ele>
        <time>2018-07-10T03:25:28Z</time>
      </trkpt>
      <trkpt lat="4.6261850" lon="-74.1237280">
        <ele>2553.6</ele>
        <time>2018-07-10T03:25:31Z</time>
      </trkpt>
      <trkpt lat="4.6260100" lon="-74.1237920">
        <ele>2553.6</ele>
        <time>2018-07-10T03:25:34Z</time>
      </trkpt>
      <trkpt lat="4.6257950" lon="-74.1238730">
        <ele>2553.6</ele>
        <time>2018-07-10T03:25:38Z</time>
      </trkpt>
      <trkpt lat="4.6256000" lon="-74.1239600">
        <ele>2553.6</ele>
        <time>2018-07-10T03:25:42Z</time>
      </trkpt>
      <trkpt lat="4.6254150" lon="-74.1240570">
        <ele>2553.7</ele>
        <time>2018-07-10T03:25:46Z</time>
      </trkpt>
      <trkpt lat="4.6252170" lon="-74.1241400">
        <ele>2553.7</ele>
        <time>2018-07-10T03:25:50Z</time>
      </trkpt>
      <trkpt lat="4.6250200" lon="-74.1242270">
        <ele>2553.8</ele>
        <time>2018-07-10T03:25:54Z</time>
      </trkpt>
      <trkpt lat="4.6248000" lon="-74.1243120">
        <ele>2553.9</ele>
        <time>2018-07-10T03:25:58Z</time>
      </trkpt>
      <trkpt lat="4.6245700" lon="-74.1243870">
        <ele>2553.9</ele>
        <time>2018-07-10T03:26:02Z</time>
      </trkpt>
      <trkpt lat="4.6243800" lon="-74.1244450">
        <ele>2554.0</ele>
        <time>2018-07-10T03:26:05Z</time>
      </trkpt>
      <trkpt lat="4.6241850" lon="-74.1245020">
        <ele>2554.3</ele>
        <time>2018-07-10T03:26:08Z</time>
      </trkpt>
      <trkpt lat="4.6239570" lon="-74.1245730">
        <ele>2554.9</ele>
        <time>2018-07-10T03:26:12Z</time>
      </trkpt>
      <trkpt lat="4.6237830" lon="-74.1246320">
        <ele>2555.3</ele>
        <time>2018-07-10T03:26:15Z</time>
      </trkpt>
      <trkpt lat="4.6236070" lon="-74.1246880">
        <ele>2555.4</ele>
        <time>2018-07-10T03:26:18Z</time>
      </trkpt>
      <trkpt lat="4.6233970" lon="-74.1247630">
        <ele>2555.5</ele>
        <time>2018-07-10T03:26:22Z</time>
      </trkpt>
      <trkpt lat="4.6231850" lon="-74.1248520">
        <ele>2555.6</ele>
        <time>2018-07-10T03:26:26Z</time>
      </trkpt>
      <trkpt lat="4.6229730" lon="-74.1249200">
        <ele>2555.6</ele>
        <time>2018-07-10T03:26:30Z</time>
      </trkpt>
      <trkpt lat="4.6227470" lon="-74.1249880">
        <ele>2555.5</ele>
        <time>2018-07-10T03:26:34Z</time>
      </trkpt>
      <trkpt lat="4.6225230" lon="-74.1250570">
        <ele>2555.5</ele>
        <time>2018-07-10T03:26:38Z</time>
      </trkpt>
      <trkpt lat="4.6223130" lon="-74.1251370">
        <ele>2555.3</ele>
        <time>2018-07-10T03:26:42Z</time>
      </trkpt>
      <trkpt lat="4.6220920" lon="-74.1252120">
        <ele>2555.1</ele>
        <time>2018-07-10T03:26:46Z</time>
      </trkpt>
      <trkpt lat="4.6218670" lon="-74.1253020">
        <ele>2554.6</ele>
        <time>2018-07-10T03:26:50Z</time>
      </trkpt>
      <trkpt lat="4.6216880" lon="-74.1253630">
        <ele>2554.0</ele>
        <time>2018-07-10T03:26:53Z</time>
      </trkpt>
      <trkpt lat="4.6215200" lon="-74.1254420">
        <ele>2553.6</ele>
        <time>2018-07-10T03:26:56Z</time>
      </trkpt>
      <trkpt lat="4.6213100" lon="-74.1254880">
        <ele>2553.3</ele>
        <time>2018-07-10T03:27:00Z</time>
      </trkpt>
      <trkpt lat="4.6211080" lon="-74.1255300">
        <ele>2553.1</ele>
        <time>2018-07-10T03:27:04Z</time>
      </trkpt>
      <trkpt lat="4.6209130" lon="-74.1255470">
        <ele>2552.8</ele>
        <time>2018-07-10T03:27:08Z</time>
      </trkpt>
      <trkpt lat="4.6207270" lon="-74.1255930">
        <ele>2552.3</ele>
        <time>2018-07-10T03:27:12Z</time>
      </trkpt>
      <trkpt lat="4.6205470" lon="-74.1256480">
        <ele>2552.0</ele>
        <time>2018-07-10T03:27:18Z</time>
      </trkpt>
      <trkpt lat="4.6203270" lon="-74.1257220">
        <ele>2552.8</ele>
        <time>2018-07-10T03:27:23Z</time>
      </trkpt>
      <trkpt lat="4.6201350" lon="-74.1258000">
        <ele>2553.6</ele>
        <time>2018-07-10T03:27:27Z</time>
      </trkpt>
      <trkpt lat="4.6199420" lon="-74.1258770">
        <ele>2554.2</ele>
        <time>2018-07-10T03:27:31Z</time>
      </trkpt>
      <trkpt lat="4.6197370" lon="-74.1259350">
        <ele>2554.9</ele>
        <time>2018-07-10T03:27:35Z</time>
      </trkpt>
      <trkpt lat="4.6195430" lon="-74.1260170">
        <ele>2555.2</ele>
        <time>2018-07-10T03:27:39Z</time>
      </trkpt>
      <trkpt lat="4.6193370" lon="-74.1260800">
        <ele>2555.4</ele>
        <time>2018-07-10T03:27:43Z</time>
      </trkpt>
      <trkpt lat="4.6191470" lon="-74.1261450">
        <ele>2555.7</ele>
        <time>2018-07-10T03:27:47Z</time>
      </trkpt>
      <trkpt lat="4.6189520" lon="-74.1262020">
        <ele>2556.0</ele>
        <time>2018-07-10T03:27:51Z</time>
      </trkpt>
      <trkpt lat="4.6187600" lon="-74.1262670">
        <ele>2556.0</ele>
        <time>2018-07-10T03:27:55Z</time>
      </trkpt>
      <trkpt lat="4.6185780" lon="-74.1263370">
        <ele>2555.9</ele>
        <time>2018-07-10T03:27:59Z</time>
      </trkpt>
      <trkpt lat="4.6184020" lon="-74.1263970">
        <ele>2555.9</ele>
        <time>2018-07-10T03:28:03Z</time>
      </trkpt>
      <trkpt lat="4.6182030" lon="-74.1264200">
        <ele>2555.9</ele>
        <time>2018-07-10T03:28:07Z</time>
      </trkpt>
      <trkpt lat="4.6181550" lon="-74.1266300">
        <ele>2556.6</ele>
        <time>2018-07-10T03:28:12Z</time>
      </trkpt>
      <trkpt lat="4.6181530" lon="-74.1268570">
        <ele>2557.0</ele>
        <time>2018-07-10T03:28:16Z</time>
      </trkpt>
      <trkpt lat="4.6181530" lon="-74.1270930">
        <ele>2557.0</ele>
        <time>2018-07-10T03:28:20Z</time>
      </trkpt>
      <trkpt lat="4.6181430" lon="-74.1273280">
        <ele>2557.2</ele>
        <time>2018-07-10T03:28:24Z</time>
      </trkpt>
      <trkpt lat="4.6181380" lon="-74.1275480">
        <ele>2557.8</ele>
        <time>2018-07-10T03:28:28Z</time>
      </trkpt>
      <trkpt lat="4.6181330" lon="-74.1277720">
        <ele>2558.0</ele>
        <time>2018-07-10T03:28:32Z</time>
      </trkpt>
      <trkpt lat="4.6181150" lon="-74.1279670">
        <ele>2558.0</ele>
        <time>2018-07-10T03:28:36Z</time>
      </trkpt>
      <trkpt lat="4.6179280" lon="-74.1280170">
        <ele>2558.0</ele>
        <time>2018-07-10T03:28:41Z</time>
      </trkpt>
      <trkpt lat="4.6177230" lon="-74.1280470">
        <ele>2558.0</ele>
        <time>2018-07-10T03:28:46Z</time>
      </trkpt>
      <trkpt lat="4.6176580" lon="-74.1282650">
        <ele>2557.5</ele>
        <time>2018-07-10T03:28:51Z</time>
      </trkpt>
      <trkpt lat="4.6176250" lon="-74.1284570">
        <ele>2557.4</ele>
        <time>2018-07-10T03:28:55Z</time>
      </trkpt>
      <trkpt lat="4.6176030" lon="-74.1286550">
        <ele>2557.2</ele>
        <time>2018-07-10T03:28:59Z</time>
      </trkpt>
      <trkpt lat="4.6175750" lon="-74.1288570">
        <ele>2557.0</ele>
        <time>2018-07-10T03:29:03Z</time>
      </trkpt>
      <trkpt lat="4.6175070" lon="-74.1290620">
        <ele>2557.4</ele>
        <time>2018-07-10T03:29:07Z</time>
      </trkpt>
      <trkpt lat="4.6174400" lon="-74.1292650">
        <ele>2557.7</ele>
        <time>2018-07-10T03:29:11Z</time>
      </trkpt>
      <trkpt lat="4.6173620" lon="-74.1294620">
        <ele>2557.9</ele>
        <time>2018-07-10T03:29:15Z</time>
      </trkpt>
      <trkpt lat="4.6172680" lon="-74.1296580">
        <ele>2558.0</ele>
        <time>2018-07-10T03:29:19Z</time>
      </trkpt>
      <trkpt lat="4.6172050" lon="-74.1298470">
        <ele>2558.0</ele>
        <time>2018-07-10T03:29:23Z</time>
      </trkpt>
      <trkpt lat="4.6171100" lon="-74.1300380">
        <ele>2558.0</ele>
        <time>2018-07-10T03:29:27Z</time>
      </trkpt>
      <trkpt lat="4.6169950" lon="-74.1302370">
        <ele>2558.6</ele>
        <time>2018-07-10T03:29:31Z</time>
      </trkpt>
      <trkpt lat="4.6169000" lon="-74.1303900">
        <ele>2558.0</ele>
        <time>2018-07-10T03:29:34Z</time>
      </trkpt>
      <trkpt lat="4.6167970" lon="-74.1306000">
        <ele>2557.1</ele>
        <time>2018-07-10T03:29:38Z</time>
      </trkpt>
      <trkpt lat="4.6167100" lon="-74.1308180">
        <ele>2558.0</ele>
        <time>2018-07-10T03:29:42Z</time>
      </trkpt>
      <trkpt lat="4.6166000" lon="-74.1310220">
        <ele>2557.6</ele>
        <time>2018-07-10T03:29:46Z</time>
      </trkpt>
      <trkpt lat="4.6164980" lon="-74.1312200">
        <ele>2558.0</ele>
        <time>2018-07-10T03:29:50Z</time>
      </trkpt>
      <trkpt lat="4.6163920" lon="-74.1314320">
        <ele>2557.9</ele>
        <time>2018-07-10T03:29:54Z</time>
      </trkpt>
      <trkpt lat="4.6163070" lon="-74.1315970">
        <ele>2557.7</ele>
        <time>2018-07-10T03:29:57Z</time>
      </trkpt>
      <trkpt lat="4.6162270" lon="-74.1317580">
        <ele>2557.5</ele>
        <time>2018-07-10T03:30:00Z</time>
      </trkpt>
      <trkpt lat="4.6161270" lon="-74.1319580">
        <ele>2557.4</ele>
        <time>2018-07-10T03:30:04Z</time>
      </trkpt>
      <trkpt lat="4.6160120" lon="-74.1321570">
        <ele>2557.2</ele>
        <time>2018-07-10T03:30:08Z</time>
      </trkpt>
      <trkpt lat="4.6158880" lon="-74.1322920">
        <ele>2557.0</ele>
        <time>2018-07-10T03:30:11Z</time>
      </trkpt>
      <trkpt lat="4.6157900" lon="-74.1324870">
        <ele>2557.1</ele>
        <time>2018-07-10T03:30:15Z</time>
      </trkpt>
      <trkpt lat="4.6156920" lon="-74.1326920">
        <ele>2557.3</ele>
        <time>2018-07-10T03:30:19Z</time>
      </trkpt>
      <trkpt lat="4.6155930" lon="-74.1328920">
        <ele>2557.4</ele>
        <time>2018-07-10T03:30:23Z</time>
      </trkpt>
      <trkpt lat="4.6154950" lon="-74.1330870">
        <ele>2557.6</ele>
        <time>2018-07-10T03:30:27Z</time>
      </trkpt>
      <trkpt lat="4.6153900" lon="-74.1332800">
        <ele>2557.9</ele>
        <time>2018-07-10T03:30:31Z</time>
      </trkpt>
      <trkpt lat="4.6152930" lon="-74.1334630">
        <ele>2557.9</ele>
        <time>2018-07-10T03:30:35Z</time>
      </trkpt>
      <trkpt lat="4.6151980" lon="-74.1336430">
        <ele>2557.7</ele>
        <time>2018-07-10T03:30:39Z</time>
      </trkpt>
      <trkpt lat="4.6150930" lon="-74.1338100">
        <ele>2557.5</ele>
        <time>2018-07-10T03:30:43Z</time>
      </trkpt>
      <trkpt lat="4.6149420" lon="-74.1339470">
        <ele>2557.4</ele>
        <time>2018-07-10T03:30:46Z</time>
      </trkpt>
      <trkpt lat="4.6148430" lon="-74.1341380">
        <ele>2557.2</ele>
        <time>2018-07-10T03:30:50Z</time>
      </trkpt>
      <trkpt lat="4.6147550" lon="-74.1343480">
        <ele>2557.0</ele>
        <time>2018-07-10T03:30:54Z</time>
      </trkpt>
      <trkpt lat="4.6146700" lon="-74.1345670">
        <ele>2556.9</ele>
        <time>2018-07-10T03:30:58Z</time>
      </trkpt>
      <trkpt lat="4.6145780" lon="-74.1347470">
        <ele>2556.9</ele>
        <time>2018-07-10T03:31:02Z</time>
      </trkpt>
      <trkpt lat="4.6144820" lon="-74.1349270">
        <ele>2557.1</ele>
        <time>2018-07-10T03:31:06Z</time>
      </trkpt>
      <trkpt lat="4.6143800" lon="-74.1351100">
        <ele>2557.4</ele>
        <time>2018-07-10T03:31:10Z</time>
      </trkpt>
      <trkpt lat="4.6142850" lon="-74.1352850">
        <ele>2557.7</ele>
        <time>2018-07-10T03:31:14Z</time>
      </trkpt>
      <trkpt lat="4.6143150" lon="-74.1354850">
        <ele>2558.0</ele>
        <time>2018-07-10T03:31:20Z</time>
      </trkpt>
      <trkpt lat="4.6144600" lon="-74.1356030">
        <ele>2558.0</ele>
        <time>2018-07-10T03:31:24Z</time>
      </trkpt>
      <trkpt lat="4.6146250" lon="-74.1357370">
        <ele>2558.0</ele>
        <time>2018-07-10T03:31:28Z</time>
      </trkpt>
      <trkpt lat="4.6147770" lon="-74.1358820">
        <ele>2557.3</ele>
        <time>2018-07-10T03:31:32Z</time>
      </trkpt>
      <trkpt lat="4.6149300" lon="-74.1360130">
        <ele>2556.3</ele>
        <time>2018-07-10T03:31:36Z</time>
      </trkpt>
      <trkpt lat="4.6151070" lon="-74.1361600">
        <ele>2555.2</ele>
        <time>2018-07-10T03:31:40Z</time>
      </trkpt>
      <trkpt lat="4.6152770" lon="-74.1363170">
        <ele>2554.9</ele>
        <time>2018-07-10T03:31:44Z</time>
      </trkpt>
      <trkpt lat="4.6154500" lon="-74.1364870">
        <ele>2555.7</ele>
        <time>2018-07-10T03:31:48Z</time>
      </trkpt>
      <trkpt lat="4.6156000" lon="-74.1366120">
        <ele>2557.6</ele>
        <time>2018-07-10T03:31:51Z</time>
      </trkpt>
      <trkpt lat="4.6157500" lon="-74.1367280">
        <ele>2558.1</ele>
        <time>2018-07-10T03:31:54Z</time>
      </trkpt>
      <trkpt lat="4.6159020" lon="-74.1368530">
        <ele>2558.2</ele>
        <time>2018-07-10T03:31:57Z</time>
      </trkpt>
      <trkpt lat="4.6160500" lon="-74.1369870">
        <ele>2558.4</ele>
        <time>2018-07-10T03:32:00Z</time>
      </trkpt>
      <trkpt lat="4.6161850" lon="-74.1371080">
        <ele>2558.6</ele>
        <time>2018-07-10T03:32:03Z</time>
      </trkpt>
      <trkpt lat="4.6163530" lon="-74.1372500">
        <ele>2558.9</ele>
        <time>2018-07-10T03:32:07Z</time>
      </trkpt>
      <trkpt lat="4.6165000" lon="-74.1373670">
        <ele>2559.0</ele>
        <time>2018-07-10T03:32:11Z</time>
      </trkpt>
      <trkpt lat="4.6166820" lon="-74.1374780">
        <ele>2558.7</ele>
        <time>2018-07-10T03:32:15Z</time>
      </trkpt>
      <trkpt lat="4.6168670" lon="-74.1376150">
        <ele>2558.0</ele>
        <time>2018-07-10T03:32:19Z</time>
      </trkpt>
      <trkpt lat="4.6170330" lon="-74.1377650">
        <ele>2558.2</ele>
        <time>2018-07-10T03:32:23Z</time>
      </trkpt>
      <trkpt lat="4.6172080" lon="-74.1379150">
        <ele>2557.9</ele>
        <time>2018-07-10T03:32:27Z</time>
      </trkpt>
      <trkpt lat="4.6173480" lon="-74.1380320">
        <ele>2557.8</ele>
        <time>2018-07-10T03:32:30Z</time>
      </trkpt>
      <trkpt lat="4.6174950" lon="-74.1381380">
        <ele>2556.9</ele>
        <time>2018-07-10T03:32:33Z</time>
      </trkpt>
      <trkpt lat="4.6176850" lon="-74.1382730">
        <ele>2556.8</ele>
        <time>2018-07-10T03:32:37Z</time>
      </trkpt>
      <trkpt lat="4.6178530" lon="-74.1384130">
        <ele>2556.7</ele>
        <time>2018-07-10T03:32:41Z</time>
      </trkpt>
      <trkpt lat="4.6180320" lon="-74.1385770">
        <ele>2557.0</ele>
        <time>2018-07-10T03:32:45Z</time>
      </trkpt>
      <trkpt lat="4.6182070" lon="-74.1387200">
        <ele>2557.0</ele>
        <time>2018-07-10T03:32:49Z</time>
      </trkpt>
      <trkpt lat="4.6183580" lon="-74.1388520">
        <ele>2556.5</ele>
        <time>2018-07-10T03:32:53Z</time>
      </trkpt>
      <trkpt lat="4.6184880" lon="-74.1389800">
        <ele>2554.7</ele>
        <time>2018-07-10T03:32:57Z</time>
      </trkpt>
      <trkpt lat="4.6186150" lon="-74.1391380">
        <ele>2555.0</ele>
        <time>2018-07-10T03:33:02Z</time>
      </trkpt>
      <trkpt lat="4.6187020" lon="-74.1393020">
        <ele>2556.0</ele>
        <time>2018-07-10T03:33:07Z</time>
      </trkpt>
      <trkpt lat="4.6187580" lon="-74.1394950">
        <ele>2557.4</ele>
        <time>2018-07-10T03:33:12Z</time>
      </trkpt>
      <trkpt lat="4.6187900" lon="-74.1396820">
        <ele>2558.5</ele>
        <time>2018-07-10T03:33:16Z</time>
      </trkpt>
      <trkpt lat="4.6188380" lon="-74.1399120">
        <ele>2558.6</ele>
        <time>2018-07-10T03:33:20Z</time>
      </trkpt>
      <trkpt lat="4.6188850" lon="-74.1401150">
        <ele>2558.1</ele>
        <time>2018-07-10T03:33:23Z</time>
      </trkpt>
      <trkpt lat="4.6189400" lon="-74.1403520">
        <ele>2557.9</ele>
        <time>2018-07-10T03:33:26Z</time>
      </trkpt>
      <trkpt lat="4.6190050" lon="-74.1406100">
        <ele>2558.0</ele>
        <time>2018-07-10T03:33:29Z</time>
      </trkpt>
      <trkpt lat="4.6190720" lon="-74.1408650">
        <ele>2557.2</ele>
        <time>2018-07-10T03:33:32Z</time>
      </trkpt>
      <trkpt lat="4.6191330" lon="-74.1411080">
        <ele>2555.9</ele>
        <time>2018-07-10T03:33:35Z</time>
      </trkpt>
      <trkpt lat="4.6191720" lon="-74.1413020">
        <ele>2555.2</ele>
        <time>2018-07-10T03:33:38Z</time>
      </trkpt>
      <trkpt lat="4.6192170" lon="-74.1414850">
        <ele>2555.5</ele>
        <time>2018-07-10T03:33:43Z</time>
      </trkpt>
      <trkpt lat="4.6192420" lon="-74.1416770">
        <ele>2558.0</ele>
        <time>2018-07-10T03:33:49Z</time>
      </trkpt>
      <trkpt lat="4.6192730" lon="-74.1419070">
        <ele>2558.0</ele>
        <time>2018-07-10T03:33:54Z</time>
      </trkpt>
      <trkpt lat="4.6193000" lon="-74.1421280">
        <ele>2558.5</ele>
        <time>2018-07-10T03:33:58Z</time>
      </trkpt>
      <trkpt lat="4.6193230" lon="-74.1423400">
        <ele>2559.4</ele>
        <time>2018-07-10T03:34:02Z</time>
      </trkpt>
      <trkpt lat="4.6193470" lon="-74.1425550">
        <ele>2559.7</ele>
        <time>2018-07-10T03:34:06Z</time>
      </trkpt>
      <trkpt lat="4.6193720" lon="-74.1427530">
        <ele>2559.8</ele>
        <time>2018-07-10T03:34:10Z</time>
      </trkpt>
      <trkpt lat="4.6193750" lon="-74.1429420">
        <ele>2559.3</ele>
        <time>2018-07-10T03:34:14Z</time>
      </trkpt>
      <trkpt lat="4.6193680" lon="-74.1431450">
        <ele>2558.0</ele>
        <time>2018-07-10T03:34:18Z</time>
      </trkpt>
      <trkpt lat="4.6193630" lon="-74.1433370">
        <ele>2557.1</ele>
        <time>2018-07-10T03:34:24Z</time>
      </trkpt>
      <trkpt lat="4.6193470" lon="-74.1435230">
        <ele>2556.7</ele>
        <time>2018-07-10T03:34:29Z</time>
      </trkpt>
      <trkpt lat="4.6193070" lon="-74.1437220">
        <ele>2556.5</ele>
        <time>2018-07-10T03:34:34Z</time>
      </trkpt>
      <trkpt lat="4.6192420" lon="-74.1439180">
        <ele>2556.6</ele>
        <time>2018-07-10T03:34:39Z</time>
      </trkpt>
      <trkpt lat="4.6192000" lon="-74.1441130">
        <ele>2556.4</ele>
        <time>2018-07-10T03:34:43Z</time>
      </trkpt>
      <trkpt lat="4.6191420" lon="-74.1443250">
        <ele>2558.3</ele>
        <time>2018-07-10T03:34:47Z</time>
      </trkpt>
      <trkpt lat="4.6190880" lon="-74.1445150">
        <ele>2558.9</ele>
        <time>2018-07-10T03:34:51Z</time>
      </trkpt>
      <trkpt lat="4.6190430" lon="-74.1447020">
        <ele>2558.0</ele>
        <time>2018-07-10T03:34:59Z</time>
      </trkpt>
      <trkpt lat="4.6189880" lon="-74.1449030">
        <ele>2558.0</ele>
        <time>2018-07-10T03:35:24Z</time>
      </trkpt>
      <trkpt lat="4.6189230" lon="-74.1450850">
        <ele>2556.6</ele>
        <time>2018-07-10T03:35:29Z</time>
      </trkpt>
      <trkpt lat="4.6188220" lon="-74.1452550">
        <ele>2557.1</ele>
        <time>2018-07-10T03:35:33Z</time>
      </trkpt>
      <trkpt lat="4.6187620" lon="-74.1454520">
        <ele>2556.8</ele>
        <time>2018-07-10T03:35:37Z</time>
      </trkpt>
      <trkpt lat="4.6187150" lon="-74.1456550">
        <ele>2556.1</ele>
        <time>2018-07-10T03:35:41Z</time>
      </trkpt>
      <trkpt lat="4.6186570" lon="-74.1458500">
        <ele>2555.1</ele>
        <time>2018-07-10T03:35:45Z</time>
      </trkpt>
      <trkpt lat="4.6186180" lon="-74.1460530">
        <ele>2554.2</ele>
        <time>2018-07-10T03:35:49Z</time>
      </trkpt>
      <trkpt lat="4.6185720" lon="-74.1462650">
        <ele>2554.6</ele>
        <time>2018-07-10T03:35:53Z</time>
      </trkpt>
      <trkpt lat="4.6185250" lon="-74.1464800">
        <ele>2555.1</ele>
        <time>2018-07-10T03:35:57Z</time>
      </trkpt>
      <trkpt lat="4.6184670" lon="-74.1466930">
        <ele>2555.9</ele>
        <time>2018-07-10T03:36:01Z</time>
      </trkpt>
      <trkpt lat="4.6184120" lon="-74.1469070">
        <ele>2555.9</ele>
        <time>2018-07-10T03:36:05Z</time>
      </trkpt>
      <trkpt lat="4.6183570" lon="-74.1471280">
        <ele>2554.2</ele>
        <time>2018-07-10T03:36:09Z</time>
      </trkpt>
      <trkpt lat="4.6183020" lon="-74.1473020">
        <ele>2554.0</ele>
        <time>2018-07-10T03:36:12Z</time>
      </trkpt>
      <trkpt lat="4.6182580" lon="-74.1474780">
        <ele>2554.5</ele>
        <time>2018-07-10T03:36:15Z</time>
      </trkpt>
      <trkpt lat="4.6182080" lon="-74.1476550">
        <ele>2556.4</ele>
        <time>2018-07-10T03:36:18Z</time>
      </trkpt>
      <trkpt lat="4.6181470" lon="-74.1478370">
        <ele>2557.2</ele>
        <time>2018-07-10T03:36:21Z</time>
      </trkpt>
      <trkpt lat="4.6180930" lon="-74.1480170">
        <ele>2557.0</ele>
        <time>2018-07-10T03:36:24Z</time>
      </trkpt>
      <trkpt lat="4.6180470" lon="-74.1481970">
        <ele>2557.6</ele>
        <time>2018-07-10T03:36:27Z</time>
      </trkpt>
      <trkpt lat="4.6179920" lon="-74.1483800">
        <ele>2558.4</ele>
        <time>2018-07-10T03:36:30Z</time>
      </trkpt>
      <trkpt lat="4.6179370" lon="-74.1485580">
        <ele>2558.5</ele>
        <time>2018-07-10T03:36:33Z</time>
      </trkpt>
      <trkpt lat="4.6178850" lon="-74.1487350">
        <ele>2558.7</ele>
        <time>2018-07-10T03:36:36Z</time>
      </trkpt>
      <trkpt lat="4.6178500" lon="-74.1489180">
        <ele>2558.4</ele>
        <time>2018-07-10T03:36:39Z</time>
      </trkpt>
      <trkpt lat="4.6178100" lon="-74.1491000">
        <ele>2557.3</ele>
        <time>2018-07-10T03:36:42Z</time>
      </trkpt>
      <trkpt lat="4.6177750" lon="-74.1492850">
        <ele>2558.0</ele>
        <time>2018-07-10T03:36:45Z</time>
      </trkpt>
      <trkpt lat="4.6177380" lon="-74.1494730">
        <ele>2558.1</ele>
        <time>2018-07-10T03:36:48Z</time>
      </trkpt>
      <trkpt lat="4.6177230" lon="-74.1496680">
        <ele>2558.3</ele>
        <time>2018-07-10T03:36:51Z</time>
      </trkpt>
      <trkpt lat="4.6176820" lon="-74.1498620">
        <ele>2558.0</ele>
        <time>2018-07-10T03:36:54Z</time>
      </trkpt>
      <trkpt lat="4.6176480" lon="-74.1500550">
        <ele>2557.7</ele>
        <time>2018-07-10T03:36:57Z</time>
      </trkpt>
      <trkpt lat="4.6176270" lon="-74.1502550">
        <ele>2557.2</ele>
        <time>2018-07-10T03:37:00Z</time>
      </trkpt>
      <trkpt lat="4.6176050" lon="-74.1504420">
        <ele>2555.8</ele>
        <time>2018-07-10T03:37:03Z</time>
      </trkpt>
      <trkpt lat="4.6175720" lon="-74.1506270">
        <ele>2555.8</ele>
        <time>2018-07-10T03:37:06Z</time>
      </trkpt>
      <trkpt lat="4.6175400" lon="-74.1508080">
        <ele>2556.0</ele>
        <time>2018-07-10T03:37:09Z</time>
      </trkpt>
      <trkpt lat="4.6175000" lon="-74.1509850">
        <ele>2556.0</ele>
        <time>2018-07-10T03:37:12Z</time>
      </trkpt>
      <trkpt lat="4.6174550" lon="-74.1512200">
        <ele>2556.0</ele>
        <time>2018-07-10T03:37:16Z</time>
      </trkpt>
      <trkpt lat="4.6174200" lon="-74.1514120">
        <ele>2556.0</ele>
        <time>2018-07-10T03:37:19Z</time>
      </trkpt>
      <trkpt lat="4.6173820" lon="-74.1515880">
        <ele>2556.5</ele>
        <time>2018-07-10T03:37:22Z</time>
      </trkpt>
      <trkpt lat="4.6173450" lon="-74.1518080">
        <ele>2557.0</ele>
        <time>2018-07-10T03:37:26Z</time>
      </trkpt>
      <trkpt lat="4.6173200" lon="-74.1520320">
        <ele>2556.9</ele>
        <time>2018-07-10T03:37:30Z</time>
      </trkpt>
      <trkpt lat="4.6172800" lon="-74.1522520">
        <ele>2557.7</ele>
        <time>2018-07-10T03:37:34Z</time>
      </trkpt>
      <trkpt lat="4.6172550" lon="-74.1524580">
        <ele>2560.0</ele>
        <time>2018-07-10T03:37:38Z</time>
      </trkpt>
      <trkpt lat="4.6172320" lon="-74.1526630">
        <ele>2560.0</ele>
        <time>2018-07-10T03:37:43Z</time>
      </trkpt>
      <trkpt lat="4.6171900" lon="-74.1528480">
        <ele>2559.0</ele>
        <time>2018-07-10T03:38:04Z</time>
      </trkpt>
      <trkpt lat="4.6171500" lon="-74.1530270">
        <ele>2558.4</ele>
        <time>2018-07-10T03:38:09Z</time>
      </trkpt>
      <trkpt lat="4.6171100" lon="-74.1532330">
        <ele>2559.0</ele>
        <time>2018-07-10T03:38:14Z</time>
      </trkpt>
      <trkpt lat="4.6170600" lon="-74.1534570">
        <ele>2560.1</ele>
        <time>2018-07-10T03:38:18Z</time>
      </trkpt>
      <trkpt lat="4.6170170" lon="-74.1536500">
        <ele>2560.8</ele>
        <time>2018-07-10T03:38:21Z</time>
      </trkpt>
      <trkpt lat="4.6169800" lon="-74.1538320">
        <ele>2559.4</ele>
        <time>2018-07-10T03:38:24Z</time>
      </trkpt>
      <trkpt lat="4.6169430" lon="-74.1540080">
        <ele>2557.8</ele>
        <time>2018-07-10T03:38:28Z</time>
      </trkpt>
      <trkpt lat="4.6168950" lon="-74.1542070">
        <ele>2556.5</ele>
        <time>2018-07-10T03:38:35Z</time>
      </trkpt>
      <trkpt lat="4.6167570" lon="-74.1543280">
        <ele>2556.0</ele>
        <time>2018-07-10T03:38:39Z</time>
      </trkpt>
      <trkpt lat="4.6165200" lon="-74.1543570">
        <ele>2557.7</ele>
        <time>2018-07-10T03:38:43Z</time>
      </trkpt>
      <trkpt lat="4.6163100" lon="-74.1543850">
        <ele>2559.0</ele>
        <time>2018-07-10T03:38:46Z</time>
      </trkpt>
      <trkpt lat="4.6160820" lon="-74.1544120">
        <ele>2559.6</ele>
        <time>2018-07-10T03:38:49Z</time>
      </trkpt>
      <trkpt lat="4.6158330" lon="-74.1544400">
        <ele>2560.1</ele>
        <time>2018-07-10T03:38:52Z</time>
      </trkpt>
      <trkpt lat="4.6156220" lon="-74.1544920">
        <ele>2561.0</ele>
        <time>2018-07-10T03:38:55Z</time>
      </trkpt>
      <trkpt lat="4.6155620" lon="-74.1546800">
        <ele>2561.0</ele>
        <time>2018-07-10T03:38:58Z</time>
      </trkpt>
      <trkpt lat="4.6155130" lon="-74.1548880">
        <ele>2560.9</ele>
        <time>2018-07-10T03:39:01Z</time>
      </trkpt>
      <trkpt lat="4.6154570" lon="-74.1551180">
        <ele>2557.0</ele>
        <time>2018-07-10T03:39:04Z</time>
      </trkpt>
      <trkpt lat="4.6153980" lon="-74.1553580">
        <ele>2557.0</ele>
        <time>2018-07-10T03:39:07Z</time>
      </trkpt>
      <trkpt lat="4.6153350" lon="-74.1555880">
        <ele>2557.0</ele>
        <time>2018-07-10T03:39:10Z</time>
      </trkpt>
      <trkpt lat="4.6152270" lon="-74.1557380">
        <ele>2557.0</ele>
        <time>2018-07-10T03:39:13Z</time>
      </trkpt>
      <trkpt lat="4.6150100" lon="-74.1557420">
        <ele>2558.6</ele>
        <time>2018-07-10T03:39:17Z</time>
      </trkpt>
      <trkpt lat="4.6147770" lon="-74.1557070">
        <ele>2559.4</ele>
        <time>2018-07-10T03:39:21Z</time>
      </trkpt>
      <trkpt lat="4.6146350" lon="-74.1558450">
        <ele>2558.0</ele>
        <time>2018-07-10T03:39:25Z</time>
      </trkpt>
      <trkpt lat="4.6146030" lon="-74.1560350">
        <ele>2557.3</ele>
        <time>2018-07-10T03:39:28Z</time>
      </trkpt>
      <trkpt lat="4.6145720" lon="-74.1562500">
        <ele>2557.7</ele>
        <time>2018-07-10T03:39:31Z</time>
      </trkpt>
      <trkpt lat="4.6145220" lon="-74.1564750">
        <ele>2558.6</ele>
        <time>2018-07-10T03:39:34Z</time>
      </trkpt>
      <trkpt lat="4.6144470" lon="-74.1567080">
        <ele>2559.4</ele>
        <time>2018-07-10T03:39:37Z</time>
      </trkpt>
      <trkpt lat="4.6143070" lon="-74.1569150">
        <ele>2558.7</ele>
        <time>2018-07-10T03:39:40Z</time>
      </trkpt>
      <trkpt lat="4.6141380" lon="-74.1570980">
        <ele>2559.2</ele>
        <time>2018-07-10T03:39:43Z</time>
      </trkpt>
      <trkpt lat="4.6139920" lon="-74.1572900">
        <ele>2559.9</ele>
        <time>2018-07-10T03:39:46Z</time>
      </trkpt>
      <trkpt lat="4.6138350" lon="-74.1574700">
        <ele>2559.0</ele>
        <time>2018-07-10T03:39:49Z</time>
      </trkpt>
      <trkpt lat="4.6136950" lon="-74.1576530">
        <ele>2560.0</ele>
        <time>2018-07-10T03:39:52Z</time>
      </trkpt>
      <trkpt lat="4.6135680" lon="-74.1578430">
        <ele>2560.9</ele>
        <time>2018-07-10T03:39:55Z</time>
      </trkpt>
      <trkpt lat="4.6134320" lon="-74.1580350">
        <ele>2560.4</ele>
        <time>2018-07-10T03:39:58Z</time>
      </trkpt>
      <trkpt lat="4.6132950" lon="-74.1582320">
        <ele>2558.8</ele>
        <time>2018-07-10T03:40:01Z</time>
      </trkpt>
      <trkpt lat="4.6131280" lon="-74.1584150">
        <ele>2557.3</ele>
        <time>2018-07-10T03:40:04Z</time>
      </trkpt>
      <trkpt lat="4.6129770" lon="-74.1586080">
        <ele>2557.0</ele>
        <time>2018-07-10T03:40:07Z</time>
      </trkpt>
      <trkpt lat="4.6128250" lon="-74.1588050">
        <ele>2557.0</ele>
        <time>2018-07-10T03:40:10Z</time>
      </trkpt>
      <trkpt lat="4.6126950" lon="-74.1590150">
        <ele>2556.1</ele>
        <time>2018-07-10T03:40:13Z</time>
      </trkpt>
      <trkpt lat="4.6125920" lon="-74.1592350">
        <ele>2554.9</ele>
        <time>2018-07-10T03:40:16Z</time>
      </trkpt>
      <trkpt lat="4.6124820" lon="-74.1594470">
        <ele>2555.0</ele>
        <time>2018-07-10T03:40:19Z</time>
      </trkpt>
      <trkpt lat="4.6123800" lon="-74.1596700">
        <ele>2555.0</ele>
        <time>2018-07-10T03:40:22Z</time>
      </trkpt>
      <trkpt lat="4.6122570" lon="-74.1599000">
        <ele>2554.9</ele>
        <time>2018-07-10T03:40:25Z</time>
      </trkpt>
      <trkpt lat="4.6122000" lon="-74.1600750">
        <ele>2554.8</ele>
        <time>2018-07-10T03:40:27Z</time>
      </trkpt>
      <trkpt lat="4.6121450" lon="-74.1602550">
        <ele>2555.0</ele>
        <time>2018-07-10T03:40:29Z</time>
      </trkpt>
      <trkpt lat="4.6120830" lon="-74.1605080">
        <ele>2555.3</ele>
        <time>2018-07-10T03:40:32Z</time>
      </trkpt>
      <trkpt lat="4.6120170" lon="-74.1607450">
        <ele>2555.0</ele>
        <time>2018-07-10T03:40:35Z</time>
      </trkpt>
      <trkpt lat="4.6119280" lon="-74.1609330">
        <ele>2553.9</ele>
        <time>2018-07-10T03:40:38Z</time>
      </trkpt>
      <trkpt lat="4.6118000" lon="-74.1610820">
        <ele>2553.0</ele>
        <time>2018-07-10T03:40:44Z</time>
      </trkpt>
      <trkpt lat="4.6117100" lon="-74.1612400">
        <ele>2553.0</ele>
        <time>2018-07-10T03:40:51Z</time>
      </trkpt>
      <trkpt lat="4.6114970" lon="-74.1612600">
        <ele>2553.6</ele>
        <time>2018-07-10T03:40:57Z</time>
      </trkpt>
      <trkpt lat="4.6113030" lon="-74.1612620">
        <ele>2554.0</ele>
        <time>2018-07-10T03:41:00Z</time>
      </trkpt>
      <trkpt lat="4.6110870" lon="-74.1612730">
        <ele>2555.6</ele>
        <time>2018-07-10T03:41:03Z</time>
      </trkpt>
      <trkpt lat="4.6108730" lon="-74.1612930">
        <ele>2555.3</ele>
        <time>2018-07-10T03:41:06Z</time>
      </trkpt>
      <trkpt lat="4.6106630" lon="-74.1613120">
        <ele>2555.9</ele>
        <time>2018-07-10T03:41:09Z</time>
      </trkpt>
      <trkpt lat="4.6104650" lon="-74.1613300">
        <ele>2556.6</ele>
        <time>2018-07-10T03:41:12Z</time>
      </trkpt>
      <trkpt lat="4.6102720" lon="-74.1613520">
        <ele>2558.6</ele>
        <time>2018-07-10T03:41:15Z</time>
      </trkpt>
      <trkpt lat="4.6100650" lon="-74.1613650">
        <ele>2559.0</ele>
        <time>2018-07-10T03:41:18Z</time>
      </trkpt>
      <trkpt lat="4.6098670" lon="-74.1613800">
        <ele>2559.3</ele>
        <time>2018-07-10T03:41:21Z</time>
      </trkpt>
      <trkpt lat="4.6096770" lon="-74.1613920">
        <ele>2558.8</ele>
        <time>2018-07-10T03:41:24Z</time>
      </trkpt>
      <trkpt lat="4.6094770" lon="-74.1614100">
        <ele>2556.7</ele>
        <time>2018-07-10T03:41:27Z</time>
      </trkpt>
      <trkpt lat="4.6092570" lon="-74.1614280">
        <ele>2553.9</ele>
        <time>2018-07-10T03:41:30Z</time>
      </trkpt>
      <trkpt lat="4.6090270" lon="-74.1614480">
        <ele>2552.7</ele>
        <time>2018-07-10T03:41:33Z</time>
      </trkpt>
      <trkpt lat="4.6087930" lon="-74.1614650">
        <ele>2551.5</ele>
        <time>2018-07-10T03:41:36Z</time>
      </trkpt>
      <trkpt lat="4.6085550" lon="-74.1614780">
        <ele>2550.8</ele>
        <time>2018-07-10T03:41:39Z</time>
      </trkpt>
      <trkpt lat="4.6083130" lon="-74.1614930">
        <ele>2551.0</ele>
        <time>2018-07-10T03:41:42Z</time>
      </trkpt>
      <trkpt lat="4.6080750" lon="-74.1615120">
        <ele>2551.0</ele>
        <time>2018-07-10T03:41:45Z</time>
      </trkpt>
      <trkpt lat="4.6078450" lon="-74.1615300">
        <ele>2550.8</ele>
        <time>2018-07-10T03:41:48Z</time>
      </trkpt>
      <trkpt lat="4.6076220" lon="-74.1615520">
        <ele>2551.8</ele>
        <time>2018-07-10T03:41:51Z</time>
      </trkpt>
      <trkpt lat="4.6074050" lon="-74.1615700">
        <ele>2554.8</ele>
        <time>2018-07-10T03:41:54Z</time>
      </trkpt>
      <trkpt lat="4.6071950" lon="-74.1615850">
        <ele>2556.1</ele>
        <time>2018-07-10T03:41:57Z</time>
      </trkpt>
      <trkpt lat="4.6069930" lon="-74.1616000">
        <ele>2555.5</ele>
        <time>2018-07-10T03:42:00Z</time>
      </trkpt>
      <trkpt lat="4.6067870" lon="-74.1616170">
        <ele>2552.9</ele>
        <time>2018-07-10T03:42:03Z</time>
      </trkpt>
      <trkpt lat="4.6065670" lon="-74.1616350">
        <ele>2551.2</ele>
        <time>2018-07-10T03:42:06Z</time>
      </trkpt>
      <trkpt lat="4.6063520" lon="-74.1616550">
        <ele>2552.8</ele>
        <time>2018-07-10T03:42:09Z</time>
      </trkpt>
      <trkpt lat="4.6061400" lon="-74.1616750">
        <ele>2554.3</ele>
        <time>2018-07-10T03:42:12Z</time>
      </trkpt>
      <trkpt lat="4.6059250" lon="-74.1616900">
        <ele>2554.3</ele>
        <time>2018-07-10T03:42:15Z</time>
      </trkpt>
      <trkpt lat="4.6057150" lon="-74.1617100">
        <ele>2552.1</ele>
        <time>2018-07-10T03:42:18Z</time>
      </trkpt>
      <trkpt lat="4.6055020" lon="-74.1617270">
        <ele>2551.1</ele>
        <time>2018-07-10T03:42:21Z</time>
      </trkpt>
      <trkpt lat="4.6052850" lon="-74.1617420">
        <ele>2553.6</ele>
        <time>2018-07-10T03:42:24Z</time>
      </trkpt>
      <trkpt lat="4.6050700" lon="-74.1617520">
        <ele>2555.4</ele>
        <time>2018-07-10T03:42:27Z</time>
      </trkpt>
      <trkpt lat="4.6048530" lon="-74.1617700">
        <ele>2557.1</ele>
        <time>2018-07-10T03:42:30Z</time>
      </trkpt>
      <trkpt lat="4.6046250" lon="-74.1617900">
        <ele>2558.0</ele>
        <time>2018-07-10T03:42:33Z</time>
      </trkpt>
      <trkpt lat="4.6044020" lon="-74.1618020">
        <ele>2560.0</ele>
        <time>2018-07-10T03:42:36Z</time>
      </trkpt>
      <trkpt lat="4.6041920" lon="-74.1618100">
        <ele>2559.9</ele>
        <time>2018-07-10T03:42:39Z</time>
      </trkpt>
      <trkpt lat="4.6039750" lon="-74.1618230">
        <ele>2559.6</ele>
        <time>2018-07-10T03:42:42Z</time>
      </trkpt>
      <trkpt lat="4.6037600" lon="-74.1618480">
        <ele>2560.8</ele>
        <time>2018-07-10T03:42:45Z</time>
      </trkpt>
      <trkpt lat="4.6035370" lon="-74.1618670">
        <ele>2562.9</ele>
        <time>2018-07-10T03:42:48Z</time>
      </trkpt>
      <trkpt lat="4.6033080" lon="-74.1618870">
        <ele>2563.7</ele>
        <time>2018-07-10T03:42:51Z</time>
      </trkpt>
      <trkpt lat="4.6030780" lon="-74.1618970">
        <ele>2562.0</ele>
        <time>2018-07-10T03:42:54Z</time>
      </trkpt>
      <trkpt lat="4.6028600" lon="-74.1619150">
        <ele>2561.0</ele>
        <time>2018-07-10T03:42:57Z</time>
      </trkpt>
      <trkpt lat="4.6026450" lon="-74.1619370">
        <ele>2562.4</ele>
        <time>2018-07-10T03:43:00Z</time>
      </trkpt>
      <trkpt lat="4.6024270" lon="-74.1619600">
        <ele>2563.3</ele>
        <time>2018-07-10T03:43:03Z</time>
      </trkpt>
      <trkpt lat="4.6021980" lon="-74.1619850">
        <ele>2561.3</ele>
        <time>2018-07-10T03:43:06Z</time>
      </trkpt>
      <trkpt lat="4.6019600" lon="-74.1619970">
        <ele>2560.4</ele>
        <time>2018-07-10T03:43:09Z</time>
      </trkpt>
      <trkpt lat="4.6017180" lon="-74.1620130">
        <ele>2560.3</ele>
        <time>2018-07-10T03:43:12Z</time>
      </trkpt>
      <trkpt lat="4.6014730" lon="-74.1620330">
        <ele>2561.3</ele>
        <time>2018-07-10T03:43:15Z</time>
      </trkpt>
      <trkpt lat="4.6012170" lon="-74.1620530">
        <ele>2560.6</ele>
        <time>2018-07-10T03:43:18Z</time>
      </trkpt>
      <trkpt lat="4.6009620" lon="-74.1620730">
        <ele>2558.8</ele>
        <time>2018-07-10T03:43:21Z</time>
      </trkpt>
      <trkpt lat="4.6007120" lon="-74.1620930">
        <ele>2559.5</ele>
        <time>2018-07-10T03:43:24Z</time>
      </trkpt>
      <trkpt lat="4.6004570" lon="-74.1621150">
        <ele>2561.3</ele>
        <time>2018-07-10T03:43:27Z</time>
      </trkpt>
      <trkpt lat="4.6002100" lon="-74.1621420">
        <ele>2560.6</ele>
        <time>2018-07-10T03:43:30Z</time>
      </trkpt>
      <trkpt lat="4.5999750" lon="-74.1621700">
        <ele>2560.0</ele>
        <time>2018-07-10T03:43:33Z</time>
      </trkpt>
      <trkpt lat="4.5997880" lon="-74.1622200">
        <ele>2560.0</ele>
        <time>2018-07-10T03:43:36Z</time>
      </trkpt>
      <trkpt lat="4.5996080" lon="-74.1622570">
        <ele>2560.0</ele>
        <time>2018-07-10T03:43:39Z</time>
      </trkpt>
      <trkpt lat="4.5994100" lon="-74.1622700">
        <ele>2561.3</ele>
        <time>2018-07-10T03:43:42Z</time>
      </trkpt>
      <trkpt lat="4.5992000" lon="-74.1622830">
        <ele>2562.3</ele>
        <time>2018-07-10T03:43:45Z</time>
      </trkpt>
      <trkpt lat="4.5989820" lon="-74.1623020">
        <ele>2562.9</ele>
        <time>2018-07-10T03:43:48Z</time>
      </trkpt>
      <trkpt lat="4.5987620" lon="-74.1623150">
        <ele>2563.3</ele>
        <time>2018-07-10T03:43:51Z</time>
      </trkpt>
      <trkpt lat="4.5985450" lon="-74.1623250">
        <ele>2563.0</ele>
        <time>2018-07-10T03:43:54Z</time>
      </trkpt>
      <trkpt lat="4.5983250" lon="-74.1623320">
        <ele>2562.1</ele>
        <time>2018-07-10T03:43:57Z</time>
      </trkpt>
      <trkpt lat="4.5981050" lon="-74.1623270">
        <ele>2560.5</ele>
        <time>2018-07-10T03:44:00Z</time>
      </trkpt>
      <trkpt lat="4.5978820" lon="-74.1623100">
        <ele>2560.2</ele>
        <time>2018-07-10T03:44:03Z</time>
      </trkpt>
      <trkpt lat="4.5976570" lon="-74.1622830">
        <ele>2562.2</ele>
        <time>2018-07-10T03:44:06Z</time>
      </trkpt>
      <trkpt lat="4.5974320" lon="-74.1622620">
        <ele>2563.4</ele>
        <time>2018-07-10T03:44:09Z</time>
      </trkpt>
      <trkpt lat="4.5972020" lon="-74.1622400">
        <ele>2561.6</ele>
        <time>2018-07-10T03:44:12Z</time>
      </trkpt>
      <trkpt lat="4.5969780" lon="-74.1622280">
        <ele>2560.6</ele>
        <time>2018-07-10T03:44:15Z</time>
      </trkpt>
      <trkpt lat="4.5967580" lon="-74.1622600">
        <ele>2560.0</ele>
        <time>2018-07-10T03:44:18Z</time>
      </trkpt>
      <trkpt lat="4.5965470" lon="-74.1623480">
        <ele>2559.7</ele>
        <time>2018-07-10T03:44:21Z</time>
      </trkpt>
      <trkpt lat="4.5963620" lon="-74.1624780">
        <ele>2559.9</ele>
        <time>2018-07-10T03:44:24Z</time>
      </trkpt>
      <trkpt lat="4.5962180" lon="-74.1626430">
        <ele>2558.7</ele>
        <time>2018-07-10T03:44:27Z</time>
      </trkpt>
      <trkpt lat="4.5961250" lon="-74.1628370">
        <ele>2559.0</ele>
        <time>2018-07-10T03:44:30Z</time>
      </trkpt>
      <trkpt lat="4.5960820" lon="-74.1630520">
        <ele>2559.1</ele>
        <time>2018-07-10T03:44:33Z</time>
      </trkpt>
      <trkpt lat="4.5960700" lon="-74.1632850">
        <ele>2559.4</ele>
        <time>2018-07-10T03:44:36Z</time>
      </trkpt>
      <trkpt lat="4.5960620" lon="-74.1635230">
        <ele>2559.6</ele>
        <time>2018-07-10T03:44:39Z</time>
      </trkpt>
      <trkpt lat="4.5960650" lon="-74.1637620">
        <ele>2559.6</ele>
        <time>2018-07-10T03:44:42Z</time>
      </trkpt>
      <trkpt lat="4.5960630" lon="-74.1640120">
        <ele>2559.9</ele>
        <time>2018-07-10T03:44:45Z</time>
      </trkpt>
      <trkpt lat="4.5960380" lon="-74.1642550">
        <ele>2558.8</ele>
        <time>2018-07-10T03:44:48Z</time>
      </trkpt>
      <trkpt lat="4.5960030" lon="-74.1644820">
        <ele>2557.9</ele>
        <time>2018-07-10T03:44:51Z</time>
      </trkpt>
      <trkpt lat="4.5959820" lon="-74.1646980">
        <ele>2557.6</ele>
        <time>2018-07-10T03:44:54Z</time>
      </trkpt>
      <trkpt lat="4.5959820" lon="-74.1649350">
        <ele>2558.2</ele>
        <time>2018-07-10T03:44:57Z</time>
      </trkpt>
      <trkpt lat="4.5959770" lon="-74.1651830">
        <ele>2560.3</ele>
        <time>2018-07-10T03:45:00Z</time>
      </trkpt>
      <trkpt lat="4.5959570" lon="-74.1654330">
        <ele>2562.0</ele>
        <time>2018-07-10T03:45:03Z</time>
      </trkpt>
      <trkpt lat="4.5959320" lon="-74.1656820">
        <ele>2561.6</ele>
        <time>2018-07-10T03:45:06Z</time>
      </trkpt>
      <trkpt lat="4.5959370" lon="-74.1659350">
        <ele>2561.3</ele>
        <time>2018-07-10T03:45:09Z</time>
      </trkpt>
      <trkpt lat="4.5959380" lon="-74.1661820">
        <ele>2561.0</ele>
        <time>2018-07-10T03:45:12Z</time>
      </trkpt>
      <trkpt lat="4.5959370" lon="-74.1664070">
        <ele>2560.7</ele>
        <time>2018-07-10T03:45:15Z</time>
      </trkpt>
      <trkpt lat="4.5959070" lon="-74.1666430">
        <ele>2561.3</ele>
        <time>2018-07-10T03:45:18Z</time>
      </trkpt>
      <trkpt lat="4.5958620" lon="-74.1668900">
        <ele>2561.7</ele>
        <time>2018-07-10T03:45:21Z</time>
      </trkpt>
      <trkpt lat="4.5958030" lon="-74.1671400">
        <ele>2561.8</ele>
        <time>2018-07-10T03:45:24Z</time>
      </trkpt>
      <trkpt lat="4.5957620" lon="-74.1673870">
        <ele>2561.9</ele>
        <time>2018-07-10T03:45:27Z</time>
      </trkpt>
      <trkpt lat="4.5957480" lon="-74.1676430">
        <ele>2561.6</ele>
        <time>2018-07-10T03:45:30Z</time>
      </trkpt>
      <trkpt lat="4.5957480" lon="-74.1679170">
        <ele>2560.3</ele>
        <time>2018-07-10T03:45:33Z</time>
      </trkpt>
      <trkpt lat="4.5957530" lon="-74.1681070">
        <ele>2559.4</ele>
        <time>2018-07-10T03:45:35Z</time>
      </trkpt>
      <trkpt lat="4.5957520" lon="-74.1682980">
        <ele>2559.1</ele>
        <time>2018-07-10T03:45:37Z</time>
      </trkpt>
      <trkpt lat="4.5957520" lon="-74.1684850">
        <ele>2558.9</ele>
        <time>2018-07-10T03:45:39Z</time>
      </trkpt>
      <trkpt lat="4.5957570" lon="-74.1686670">
        <ele>2558.8</ele>
        <time>2018-07-10T03:45:41Z</time>
      </trkpt>
      <trkpt lat="4.5957700" lon="-74.1689380">
        <ele>2558.7</ele>
        <time>2018-07-10T03:45:44Z</time>
      </trkpt>
      <trkpt lat="4.5957880" lon="-74.1692070">
        <ele>2558.6</ele>
        <time>2018-07-10T03:45:47Z</time>
      </trkpt>
      <trkpt lat="4.5958220" lon="-74.1694770">
        <ele>2558.5</ele>
        <time>2018-07-10T03:45:50Z</time>
      </trkpt>
      <trkpt lat="4.5958430" lon="-74.1696620">
        <ele>2558.4</ele>
        <time>2018-07-10T03:45:52Z</time>
      </trkpt>
      <trkpt lat="4.5958680" lon="-74.1698470">
        <ele>2558.2</ele>
        <time>2018-07-10T03:45:54Z</time>
      </trkpt>
      <trkpt lat="4.5958970" lon="-74.1700300">
        <ele>2558.0</ele>
        <time>2018-07-10T03:45:56Z</time>
      </trkpt>
      <trkpt lat="4.5959220" lon="-74.1702170">
        <ele>2557.9</ele>
        <time>2018-07-10T03:45:58Z</time>
      </trkpt>
      <trkpt lat="4.5959450" lon="-74.1704020">
        <ele>2557.8</ele>
        <time>2018-07-10T03:46:00Z</time>
      </trkpt>
      <trkpt lat="4.5959670" lon="-74.1705820">
        <ele>2557.6</ele>
        <time>2018-07-10T03:46:02Z</time>
      </trkpt>
      <trkpt lat="4.5960000" lon="-74.1708380">
        <ele>2557.5</ele>
        <time>2018-07-10T03:46:05Z</time>
      </trkpt>
      <trkpt lat="4.5960380" lon="-74.1710880">
        <ele>2557.3</ele>
        <time>2018-07-10T03:46:08Z</time>
      </trkpt>
      <trkpt lat="4.5961100" lon="-74.1713180">
        <ele>2556.6</ele>
        <time>2018-07-10T03:46:11Z</time>
      </trkpt>
      <trkpt lat="4.5962000" lon="-74.1715270">
        <ele>2555.9</ele>
        <time>2018-07-10T03:46:14Z</time>
      </trkpt>
      <trkpt lat="4.5962880" lon="-74.1717300">
        <ele>2555.4</ele>
        <time>2018-07-10T03:46:17Z</time>
      </trkpt>
      <trkpt lat="4.5963900" lon="-74.1719730">
        <ele>2555.4</ele>
        <time>2018-07-10T03:46:20Z</time>
      </trkpt>
      <trkpt lat="4.5964350" lon="-74.1721680">
        <ele>2555.8</ele>
        <time>2018-07-10T03:46:22Z</time>
      </trkpt>
      <trkpt lat="4.5964670" lon="-74.1723800">
        <ele>2556.2</ele>
        <time>2018-07-10T03:46:24Z</time>
      </trkpt>
      <trkpt lat="4.5964950" lon="-74.1726000">
        <ele>2556.5</ele>
        <time>2018-07-10T03:46:26Z</time>
      </trkpt>
      <trkpt lat="4.5965230" lon="-74.1728170">
        <ele>2556.7</ele>
        <time>2018-07-10T03:46:28Z</time>
      </trkpt>
      <trkpt lat="4.5965450" lon="-74.1730300">
        <ele>2557.0</ele>
        <time>2018-07-10T03:46:30Z</time>
      </trkpt>
      <trkpt lat="4.5965670" lon="-74.1732480">
        <ele>2557.2</ele>
        <time>2018-07-10T03:46:32Z</time>
      </trkpt>
      <trkpt lat="4.5965870" lon="-74.1734600">
        <ele>2557.5</ele>
        <time>2018-07-10T03:46:34Z</time>
      </trkpt>
      <trkpt lat="4.5966050" lon="-74.1736700">
        <ele>2557.7</ele>
        <time>2018-07-10T03:46:36Z</time>
      </trkpt>
      <trkpt lat="4.5966220" lon="-74.1738770">
        <ele>2558.0</ele>
        <time>2018-07-10T03:46:38Z</time>
      </trkpt>
      <trkpt lat="4.5966400" lon="-74.1740820">
        <ele>2557.7</ele>
        <time>2018-07-10T03:46:40Z</time>
      </trkpt>
      <trkpt lat="4.5966570" lon="-74.1742850">
        <ele>2557.2</ele>
        <time>2018-07-10T03:46:42Z</time>
      </trkpt>
      <trkpt lat="4.5966830" lon="-74.1744780">
        <ele>2556.7</ele>
        <time>2018-07-10T03:46:44Z</time>
      </trkpt>
      <trkpt lat="4.5967150" lon="-74.1746620">
        <ele>2556.6</ele>
        <time>2018-07-10T03:46:46Z</time>
      </trkpt>
      <trkpt lat="4.5967430" lon="-74.1748470">
        <ele>2556.6</ele>
        <time>2018-07-10T03:46:48Z</time>
      </trkpt>
      <trkpt lat="4.5967700" lon="-74.1750330">
        <ele>2556.6</ele>
        <time>2018-07-10T03:46:50Z</time>
      </trkpt>
      <trkpt lat="4.5968000" lon="-74.1752220">
        <ele>2556.7</ele>
        <time>2018-07-10T03:46:52Z</time>
      </trkpt>
      <trkpt lat="4.5968280" lon="-74.1754080">
        <ele>2556.9</ele>
        <time>2018-07-10T03:46:54Z</time>
      </trkpt>
      <trkpt lat="4.5968600" lon="-74.1755920">
        <ele>2557.1</ele>
        <time>2018-07-10T03:46:56Z</time>
      </trkpt>
      <trkpt lat="4.5968880" lon="-74.1757720">
        <ele>2557.2</ele>
        <time>2018-07-10T03:46:58Z</time>
      </trkpt>
      <trkpt lat="4.5969120" lon="-74.1759520">
        <ele>2557.3</ele>
        <time>2018-07-10T03:47:00Z</time>
      </trkpt>
      <trkpt lat="4.5969530" lon="-74.1762080">
        <ele>2557.4</ele>
        <time>2018-07-10T03:47:03Z</time>
      </trkpt>
      <trkpt lat="4.5969830" lon="-74.1764620">
        <ele>2557.5</ele>
        <time>2018-07-10T03:47:06Z</time>
      </trkpt>
      <trkpt lat="4.5969980" lon="-74.1766420">
        <ele>2557.5</ele>
        <time>2018-07-10T03:47:08Z</time>
      </trkpt>
      <trkpt lat="4.5970170" lon="-74.1768270">
        <ele>2557.5</ele>
        <time>2018-07-10T03:47:10Z</time>
      </trkpt>
      <trkpt lat="4.5970270" lon="-74.1770180">
        <ele>2557.6</ele>
        <time>2018-07-10T03:47:12Z</time>
      </trkpt>
      <trkpt lat="4.5970350" lon="-74.1772120">
        <ele>2557.7</ele>
        <time>2018-07-10T03:47:14Z</time>
      </trkpt>
      <trkpt lat="4.5970420" lon="-74.1774020">
        <ele>2558.0</ele>
        <time>2018-07-10T03:47:16Z</time>
      </trkpt>
      <trkpt lat="4.5970420" lon="-74.1775930">
        <ele>2561.0</ele>
        <time>2018-07-10T03:47:18Z</time>
      </trkpt>
      <trkpt lat="4.5970380" lon="-74.1777820">
        <ele>2559.8</ele>
        <time>2018-07-10T03:47:20Z</time>
      </trkpt>
      <trkpt lat="4.5970400" lon="-74.1779670">
        <ele>2561.0</ele>
        <time>2018-07-10T03:47:22Z</time>
      </trkpt>
      <trkpt lat="4.5970350" lon="-74.1781530">
        <ele>2561.0</ele>
        <time>2018-07-10T03:47:24Z</time>
      </trkpt>
      <trkpt lat="4.5970350" lon="-74.1784220">
        <ele>2561.1</ele>
        <time>2018-07-10T03:47:27Z</time>
      </trkpt>
      <trkpt lat="4.5970350" lon="-74.1786030">
        <ele>2561.6</ele>
        <time>2018-07-10T03:47:29Z</time>
      </trkpt>
      <trkpt lat="4.5970380" lon="-74.1788730">
        <ele>2562.3</ele>
        <time>2018-07-10T03:47:32Z</time>
      </trkpt>
      <trkpt lat="4.5970380" lon="-74.1790570">
        <ele>2563.0</ele>
        <time>2018-07-10T03:47:34Z</time>
      </trkpt>
      <trkpt lat="4.5970350" lon="-74.1792430">
        <ele>2566.0</ele>
        <time>2018-07-10T03:47:36Z</time>
      </trkpt>
      <trkpt lat="4.5970320" lon="-74.1794330">
        <ele>2566.0</ele>
        <time>2018-07-10T03:47:38Z</time>
      </trkpt>
      <trkpt lat="4.5970280" lon="-74.1796280">
        <ele>2566.0</ele>
        <time>2018-07-10T03:47:40Z</time>
      </trkpt>
      <trkpt lat="4.5970230" lon="-74.1798230">
        <ele>2562.4</ele>
        <time>2018-07-10T03:47:42Z</time>
      </trkpt>
      <trkpt lat="4.5970150" lon="-74.1800200">
        <ele>2559.7</ele>
        <time>2018-07-10T03:47:44Z</time>
      </trkpt>
      <trkpt lat="4.5970100" lon="-74.1802130">
        <ele>2558.9</ele>
        <time>2018-07-10T03:47:46Z</time>
      </trkpt>
      <trkpt lat="4.5970000" lon="-74.1804070">
        <ele>2558.7</ele>
        <time>2018-07-10T03:47:48Z</time>
      </trkpt>
      <trkpt lat="4.5969920" lon="-74.1806020">
        <ele>2558.5</ele>
        <time>2018-07-10T03:47:50Z</time>
      </trkpt>
      <trkpt lat="4.5969820" lon="-74.1807970">
        <ele>2558.3</ele>
        <time>2018-07-10T03:47:52Z</time>
      </trkpt>
      <trkpt lat="4.5969700" lon="-74.1809930">
        <ele>2558.1</ele>
        <time>2018-07-10T03:47:54Z</time>
      </trkpt>
      <trkpt lat="4.5969630" lon="-74.1811880">
        <ele>2558.0</ele>
        <time>2018-07-10T03:47:56Z</time>
      </trkpt>
      <trkpt lat="4.5969570" lon="-74.1813830">
        <ele>2557.8</ele>
        <time>2018-07-10T03:47:58Z</time>
      </trkpt>
      <trkpt lat="4.5969500" lon="-74.1815800">
        <ele>2557.6</ele>
        <time>2018-07-10T03:48:00Z</time>
      </trkpt>
      <trkpt lat="4.5969400" lon="-74.1817750">
        <ele>2557.3</ele>
        <time>2018-07-10T03:48:02Z</time>
      </trkpt>
      <trkpt lat="4.5969320" lon="-74.1819730">
        <ele>2557.0</ele>
        <time>2018-07-10T03:48:04Z</time>
      </trkpt>
      <trkpt lat="4.5969280" lon="-74.1821700">
        <ele>2557.0</ele>
        <time>2018-07-10T03:48:06Z</time>
      </trkpt>
      <trkpt lat="4.5969130" lon="-74.1823630">
        <ele>2556.9</ele>
        <time>2018-07-10T03:48:08Z</time>
      </trkpt>
      <trkpt lat="4.5968920" lon="-74.1825550">
        <ele>2556.9</ele>
        <time>2018-07-10T03:48:10Z</time>
      </trkpt>
      <trkpt lat="4.5968530" lon="-74.1827450">
        <ele>2556.7</ele>
        <time>2018-07-10T03:48:12Z</time>
      </trkpt>
      <trkpt lat="4.5968100" lon="-74.1829370">
        <ele>2556.5</ele>
        <time>2018-07-10T03:48:14Z</time>
      </trkpt>
      <trkpt lat="4.5967600" lon="-74.1831250">
        <ele>2556.0</ele>
        <time>2018-07-10T03:48:16Z</time>
      </trkpt>
      <trkpt lat="4.5966980" lon="-74.1833070">
        <ele>2556.2</ele>
        <time>2018-07-10T03:48:18Z</time>
      </trkpt>
      <trkpt lat="4.5966320" lon="-74.1834820">
        <ele>2556.4</ele>
        <time>2018-07-10T03:48:20Z</time>
      </trkpt>
      <trkpt lat="4.5965620" lon="-74.1836550">
        <ele>2556.7</ele>
        <time>2018-07-10T03:48:22Z</time>
      </trkpt>
      <trkpt lat="4.5964900" lon="-74.1838270">
        <ele>2556.8</ele>
        <time>2018-07-10T03:48:24Z</time>
      </trkpt>
      <trkpt lat="4.5964170" lon="-74.1839950">
        <ele>2556.9</ele>
        <time>2018-07-10T03:48:26Z</time>
      </trkpt>
      <trkpt lat="4.5963570" lon="-74.1841670">
        <ele>2556.8</ele>
        <time>2018-07-10T03:48:28Z</time>
      </trkpt>
      <trkpt lat="4.5962920" lon="-74.1843380">
        <ele>2556.6</ele>
        <time>2018-07-10T03:48:30Z</time>
      </trkpt>
      <trkpt lat="4.5962220" lon="-74.1845080">
        <ele>2556.0</ele>
        <time>2018-07-10T03:48:32Z</time>
      </trkpt>
      <trkpt lat="4.5961450" lon="-74.1846770">
        <ele>2554.7</ele>
        <time>2018-07-10T03:48:34Z</time>
      </trkpt>
      <trkpt lat="4.5960780" lon="-74.1848470">
        <ele>2554.3</ele>
        <time>2018-07-10T03:48:36Z</time>
      </trkpt>
      <trkpt lat="4.5960100" lon="-74.1850170">
        <ele>2554.0</ele>
        <time>2018-07-10T03:48:38Z</time>
      </trkpt>
      <trkpt lat="4.5959400" lon="-74.1851880">
        <ele>2553.5</ele>
        <time>2018-07-10T03:48:40Z</time>
      </trkpt>
      <trkpt lat="4.5958650" lon="-74.1853600">
        <ele>2553.4</ele>
        <time>2018-07-10T03:48:42Z</time>
      </trkpt>
      <trkpt lat="4.5957980" lon="-74.1855350">
        <ele>2553.0</ele>
        <time>2018-07-10T03:48:44Z</time>
      </trkpt>
      <trkpt lat="4.5957350" lon="-74.1857150">
        <ele>2554.8</ele>
        <time>2018-07-10T03:48:46Z</time>
      </trkpt>
      <trkpt lat="4.5956630" lon="-74.1858930">
        <ele>2556.2</ele>
        <time>2018-07-10T03:48:48Z</time>
      </trkpt>
      <trkpt lat="4.5955950" lon="-74.1860700">
        <ele>2556.1</ele>
        <time>2018-07-10T03:48:50Z</time>
      </trkpt>
      <trkpt lat="4.5955250" lon="-74.1862480">
        <ele>2555.7</ele>
        <time>2018-07-10T03:48:52Z</time>
      </trkpt>
      <trkpt lat="4.5954570" lon="-74.1864250">
        <ele>2555.4</ele>
        <time>2018-07-10T03:48:54Z</time>
      </trkpt>
      <trkpt lat="4.5953880" lon="-74.1866030">
        <ele>2555.0</ele>
        <time>2018-07-10T03:48:56Z</time>
      </trkpt>
      <trkpt lat="4.5953250" lon="-74.1867780">
        <ele>2554.6</ele>
        <time>2018-07-10T03:48:58Z</time>
      </trkpt>
      <trkpt lat="4.5952620" lon="-74.1869530">
        <ele>2554.2</ele>
        <time>2018-07-10T03:49:00Z</time>
      </trkpt>
      <trkpt lat="4.5951930" lon="-74.1871280">
        <ele>2553.9</ele>
        <time>2018-07-10T03:49:02Z</time>
      </trkpt>
      <trkpt lat="4.5951150" lon="-74.1873050">
        <ele>2553.5</ele>
        <time>2018-07-10T03:49:04Z</time>
      </trkpt>
      <trkpt lat="4.5950280" lon="-74.1874750">
        <ele>2552.7</ele>
        <time>2018-07-10T03:49:06Z</time>
      </trkpt>
      <trkpt lat="4.5949420" lon="-74.1876450">
        <ele>2552.0</ele>
        <time>2018-07-10T03:49:08Z</time>
      </trkpt>
      <trkpt lat="4.5948500" lon="-74.1878120">
        <ele>2551.9</ele>
        <time>2018-07-10T03:49:10Z</time>
      </trkpt>
      <trkpt lat="4.5947650" lon="-74.1879780">
        <ele>2551.7</ele>
        <time>2018-07-10T03:49:12Z</time>
      </trkpt>
      <trkpt lat="4.5946800" lon="-74.1881470">
        <ele>2551.6</ele>
        <time>2018-07-10T03:49:14Z</time>
      </trkpt>
      <trkpt lat="4.5945950" lon="-74.1883220">
        <ele>2551.3</ele>
        <time>2018-07-10T03:49:16Z</time>
      </trkpt>
      <trkpt lat="4.5945070" lon="-74.1884930">
        <ele>2551.0</ele>
        <time>2018-07-10T03:49:18Z</time>
      </trkpt>
      <trkpt lat="4.5944150" lon="-74.1886630">
        <ele>2551.0</ele>
        <time>2018-07-10T03:49:20Z</time>
      </trkpt>
      <trkpt lat="4.5943200" lon="-74.1888380">
        <ele>2551.0</ele>
        <time>2018-07-10T03:49:22Z</time>
      </trkpt>
      <trkpt lat="4.5942330" lon="-74.1890080">
        <ele>2551.0</ele>
        <time>2018-07-10T03:49:24Z</time>
      </trkpt>
      <trkpt lat="4.5941400" lon="-74.1891800">
        <ele>2551.0</ele>
        <time>2018-07-10T03:49:26Z</time>
      </trkpt>
      <trkpt lat="4.5940520" lon="-74.1893530">
        <ele>2551.0</ele>
        <time>2018-07-10T03:49:28Z</time>
      </trkpt>
      <trkpt lat="4.5939600" lon="-74.1895230">
        <ele>2551.1</ele>
        <time>2018-07-10T03:49:30Z</time>
      </trkpt>
      <trkpt lat="4.5938780" lon="-74.1896900">
        <ele>2551.1</ele>
        <time>2018-07-10T03:49:32Z</time>
      </trkpt>
      <trkpt lat="4.5937920" lon="-74.1898550">
        <ele>2551.1</ele>
        <time>2018-07-10T03:49:34Z</time>
      </trkpt>
      <trkpt lat="4.5937080" lon="-74.1900220">
        <ele>2551.1</ele>
        <time>2018-07-10T03:49:36Z</time>
      </trkpt>
      <trkpt lat="4.5936250" lon="-74.1901920">
        <ele>2551.0</ele>
        <time>2018-07-10T03:49:38Z</time>
      </trkpt>
      <trkpt lat="4.5935370" lon="-74.1903600">
        <ele>2550.7</ele>
        <time>2018-07-10T03:49:40Z</time>
      </trkpt>
      <trkpt lat="4.5934530" lon="-74.1905320">
        <ele>2550.2</ele>
        <time>2018-07-10T03:49:42Z</time>
      </trkpt>
      <trkpt lat="4.5933700" lon="-74.1906970">
        <ele>2549.9</ele>
        <time>2018-07-10T03:49:44Z</time>
      </trkpt>
      <trkpt lat="4.5932850" lon="-74.1908630">
        <ele>2549.9</ele>
        <time>2018-07-10T03:49:46Z</time>
      </trkpt>
      <trkpt lat="4.5931980" lon="-74.1910270">
        <ele>2549.9</ele>
        <time>2018-07-10T03:49:48Z</time>
      </trkpt>
      <trkpt lat="4.5931180" lon="-74.1911880">
        <ele>2549.9</ele>
        <time>2018-07-10T03:49:50Z</time>
      </trkpt>
      <trkpt lat="4.5930020" lon="-74.1914330">
        <ele>2549.9</ele>
        <time>2018-07-10T03:49:53Z</time>
      </trkpt>
      <trkpt lat="4.5929280" lon="-74.1916030">
        <ele>2550.0</ele>
        <time>2018-07-10T03:49:55Z</time>
      </trkpt>
      <trkpt lat="4.5928550" lon="-74.1917730">
        <ele>2550.2</ele>
        <time>2018-07-10T03:49:57Z</time>
      </trkpt>
      <trkpt lat="4.5927900" lon="-74.1919430">
        <ele>2550.4</ele>
        <time>2018-07-10T03:49:59Z</time>
      </trkpt>
      <trkpt lat="4.5926970" lon="-74.1921870">
        <ele>2550.9</ele>
        <time>2018-07-10T03:50:02Z</time>
      </trkpt>
      <trkpt lat="4.5926020" lon="-74.1924230">
        <ele>2550.9</ele>
        <time>2018-07-10T03:50:05Z</time>
      </trkpt>
      <trkpt lat="4.5924900" lon="-74.1926600">
        <ele>2550.8</ele>
        <time>2018-07-10T03:50:08Z</time>
      </trkpt>
      <trkpt lat="4.5923680" lon="-74.1929000">
        <ele>2550.6</ele>
        <time>2018-07-10T03:50:11Z</time>
      </trkpt>
      <trkpt lat="4.5922500" lon="-74.1931370">
        <ele>2550.5</ele>
        <time>2018-07-10T03:50:14Z</time>
      </trkpt>
      <trkpt lat="4.5921330" lon="-74.1933730">
        <ele>2550.4</ele>
        <time>2018-07-10T03:50:17Z</time>
      </trkpt>
      <trkpt lat="4.5920180" lon="-74.1936070">
        <ele>2550.3</ele>
        <time>2018-07-10T03:50:20Z</time>
      </trkpt>
      <trkpt lat="4.5919020" lon="-74.1938370">
        <ele>2550.2</ele>
        <time>2018-07-10T03:50:23Z</time>
      </trkpt>
      <trkpt lat="4.5917880" lon="-74.1940730">
        <ele>2550.0</ele>
        <time>2018-07-10T03:50:26Z</time>
      </trkpt>
      <trkpt lat="4.5916650" lon="-74.1943120">
        <ele>2549.9</ele>
        <time>2018-07-10T03:50:29Z</time>
      </trkpt>
      <trkpt lat="4.5915320" lon="-74.1945450">
        <ele>2549.7</ele>
        <time>2018-07-10T03:50:32Z</time>
      </trkpt>
      <trkpt lat="4.5913930" lon="-74.1947700">
        <ele>2549.6</ele>
        <time>2018-07-10T03:50:35Z</time>
      </trkpt>
      <trkpt lat="4.5912570" lon="-74.1949970">
        <ele>2549.4</ele>
        <time>2018-07-10T03:50:38Z</time>
      </trkpt>
      <trkpt lat="4.5911230" lon="-74.1952270">
        <ele>2549.3</ele>
        <time>2018-07-10T03:50:41Z</time>
      </trkpt>
      <trkpt lat="4.5910000" lon="-74.1954570">
        <ele>2549.1</ele>
        <time>2018-07-10T03:50:44Z</time>
      </trkpt>
      <trkpt lat="4.5908830" lon="-74.1956830">
        <ele>2549.0</ele>
        <time>2018-07-10T03:50:47Z</time>
      </trkpt>
      <trkpt lat="4.5907670" lon="-74.1959100">
        <ele>2549.3</ele>
        <time>2018-07-10T03:50:50Z</time>
      </trkpt>
      <trkpt lat="4.5906530" lon="-74.1961350">
        <ele>2549.6</ele>
        <time>2018-07-10T03:50:53Z</time>
      </trkpt>
      <trkpt lat="4.5905620" lon="-74.1963730">
        <ele>2549.9</ele>
        <time>2018-07-10T03:50:56Z</time>
      </trkpt>
      <trkpt lat="4.5904620" lon="-74.1966100">
        <ele>2550.2</ele>
        <time>2018-07-10T03:50:59Z</time>
      </trkpt>
      <trkpt lat="4.5903620" lon="-74.1968480">
        <ele>2550.6</ele>
        <time>2018-07-10T03:51:02Z</time>
      </trkpt>
      <trkpt lat="4.5902620" lon="-74.1970920">
        <ele>2551.3</ele>
        <time>2018-07-10T03:51:05Z</time>
      </trkpt>
      <trkpt lat="4.5901870" lon="-74.1972580">
        <ele>2551.7</ele>
        <time>2018-07-10T03:51:07Z</time>
      </trkpt>
      <trkpt lat="4.5901100" lon="-74.1974270">
        <ele>2552.1</ele>
        <time>2018-07-10T03:51:09Z</time>
      </trkpt>
      <trkpt lat="4.5900400" lon="-74.1975950">
        <ele>2552.8</ele>
        <time>2018-07-10T03:51:11Z</time>
      </trkpt>
      <trkpt lat="4.5899680" lon="-74.1977670">
        <ele>2552.9</ele>
        <time>2018-07-10T03:51:13Z</time>
      </trkpt>
      <trkpt lat="4.5898900" lon="-74.1979380">
        <ele>2552.8</ele>
        <time>2018-07-10T03:51:15Z</time>
      </trkpt>
      <trkpt lat="4.5898120" lon="-74.1981050">
        <ele>2552.7</ele>
        <time>2018-07-10T03:51:17Z</time>
      </trkpt>
      <trkpt lat="4.5897280" lon="-74.1982680">
        <ele>2552.6</ele>
        <time>2018-07-10T03:51:19Z</time>
      </trkpt>
      <trkpt lat="4.5896470" lon="-74.1984320">
        <ele>2552.4</ele>
        <time>2018-07-10T03:51:21Z</time>
      </trkpt>
      <trkpt lat="4.5895620" lon="-74.1986030">
        <ele>2552.3</ele>
        <time>2018-07-10T03:51:23Z</time>
      </trkpt>
      <trkpt lat="4.5894720" lon="-74.1987800">
        <ele>2552.1</ele>
        <time>2018-07-10T03:51:25Z</time>
      </trkpt>
      <trkpt lat="4.5893850" lon="-74.1989580">
        <ele>2551.8</ele>
        <time>2018-07-10T03:51:27Z</time>
      </trkpt>
      <trkpt lat="4.5892970" lon="-74.1991400">
        <ele>2551.2</ele>
        <time>2018-07-10T03:51:29Z</time>
      </trkpt>
      <trkpt lat="4.5892080" lon="-74.1993220">
        <ele>2550.5</ele>
        <time>2018-07-10T03:51:31Z</time>
      </trkpt>
      <trkpt lat="4.5891230" lon="-74.1995070">
        <ele>2550.2</ele>
        <time>2018-07-10T03:51:33Z</time>
      </trkpt>
      <trkpt lat="4.5890380" lon="-74.1996880">
        <ele>2550.1</ele>
        <time>2018-07-10T03:51:35Z</time>
      </trkpt>
      <trkpt lat="4.5889520" lon="-74.1998670">
        <ele>2549.9</ele>
        <time>2018-07-10T03:51:37Z</time>
      </trkpt>
      <trkpt lat="4.5888650" lon="-74.2000420">
        <ele>2549.8</ele>
        <time>2018-07-10T03:51:39Z</time>
      </trkpt>
      <trkpt lat="4.5887750" lon="-74.2002170">
        <ele>2549.7</ele>
        <time>2018-07-10T03:51:41Z</time>
      </trkpt>
      <trkpt lat="4.5886850" lon="-74.2003950">
        <ele>2549.7</ele>
        <time>2018-07-10T03:51:43Z</time>
      </trkpt>
      <trkpt lat="4.5885950" lon="-74.2005770">
        <ele>2549.6</ele>
        <time>2018-07-10T03:51:45Z</time>
      </trkpt>
      <trkpt lat="4.5885020" lon="-74.2007600">
        <ele>2549.5</ele>
        <time>2018-07-10T03:51:47Z</time>
      </trkpt>
      <trkpt lat="4.5884120" lon="-74.2009420">
        <ele>2549.5</ele>
        <time>2018-07-10T03:51:49Z</time>
      </trkpt>
      <trkpt lat="4.5883170" lon="-74.2011170">
        <ele>2549.4</ele>
        <time>2018-07-10T03:51:51Z</time>
      </trkpt>
      <trkpt lat="4.5882230" lon="-74.2012900">
        <ele>2549.3</ele>
        <time>2018-07-10T03:51:53Z</time>
      </trkpt>
      <trkpt lat="4.5881320" lon="-74.2014600">
        <ele>2549.3</ele>
        <time>2018-07-10T03:51:55Z</time>
      </trkpt>
      <trkpt lat="4.5880420" lon="-74.2016300">
        <ele>2549.2</ele>
        <time>2018-07-10T03:51:57Z</time>
      </trkpt>
      <trkpt lat="4.5879500" lon="-74.2017970">
        <ele>2549.1</ele>
        <time>2018-07-10T03:51:59Z</time>
      </trkpt>
      <trkpt lat="4.5878600" lon="-74.2019630">
        <ele>2549.1</ele>
        <time>2018-07-10T03:52:01Z</time>
      </trkpt>
      <trkpt lat="4.5877700" lon="-74.2021270">
        <ele>2549.0</ele>
        <time>2018-07-10T03:52:03Z</time>
      </trkpt>
      <trkpt lat="4.5876780" lon="-74.2022880">
        <ele>2549.0</ele>
        <time>2018-07-10T03:52:05Z</time>
      </trkpt>
      <trkpt lat="4.5875900" lon="-74.2024480">
        <ele>2548.7</ele>
        <time>2018-07-10T03:52:07Z</time>
      </trkpt>
      <trkpt lat="4.5875000" lon="-74.2026100">
        <ele>2548.6</ele>
        <time>2018-07-10T03:52:09Z</time>
      </trkpt>
      <trkpt lat="4.5874120" lon="-74.2027680">
        <ele>2548.0</ele>
        <time>2018-07-10T03:52:11Z</time>
      </trkpt>
      <trkpt lat="4.5872800" lon="-74.2030020">
        <ele>2548.2</ele>
        <time>2018-07-10T03:52:14Z</time>
      </trkpt>
      <trkpt lat="4.5871570" lon="-74.2032380">
        <ele>2548.3</ele>
        <time>2018-07-10T03:52:17Z</time>
      </trkpt>
      <trkpt lat="4.5870470" lon="-74.2034750">
        <ele>2548.3</ele>
        <time>2018-07-10T03:52:20Z</time>
      </trkpt>
      <trkpt lat="4.5869630" lon="-74.2036400">
        <ele>2548.4</ele>
        <time>2018-07-10T03:52:22Z</time>
      </trkpt>
      <trkpt lat="4.5868800" lon="-74.2038070">
        <ele>2548.4</ele>
        <time>2018-07-10T03:52:24Z</time>
      </trkpt>
      <trkpt lat="4.5867920" lon="-74.2039700">
        <ele>2548.4</ele>
        <time>2018-07-10T03:52:26Z</time>
      </trkpt>
      <trkpt lat="4.5867070" lon="-74.2041380">
        <ele>2548.5</ele>
        <time>2018-07-10T03:52:28Z</time>
      </trkpt>
      <trkpt lat="4.5866270" lon="-74.2043120">
        <ele>2548.5</ele>
        <time>2018-07-10T03:52:30Z</time>
      </trkpt>
      <trkpt lat="4.5865400" lon="-74.2044820">
        <ele>2548.5</ele>
        <time>2018-07-10T03:52:32Z</time>
      </trkpt>
      <trkpt lat="4.5864550" lon="-74.2046550">
        <ele>2548.5</ele>
        <time>2018-07-10T03:52:34Z</time>
      </trkpt>
      <trkpt lat="4.5863680" lon="-74.2048280">
        <ele>2548.5</ele>
        <time>2018-07-10T03:52:36Z</time>
      </trkpt>
      <trkpt lat="4.5862830" lon="-74.2049980">
        <ele>2548.6</ele>
        <time>2018-07-10T03:52:38Z</time>
      </trkpt>
      <trkpt lat="4.5862000" lon="-74.2051650">
        <ele>2548.6</ele>
        <time>2018-07-10T03:52:40Z</time>
      </trkpt>
      <trkpt lat="4.5861150" lon="-74.2053300">
        <ele>2548.6</ele>
        <time>2018-07-10T03:52:42Z</time>
      </trkpt>
      <trkpt lat="4.5860350" lon="-74.2055000">
        <ele>2548.7</ele>
        <time>2018-07-10T03:52:44Z</time>
      </trkpt>
      <trkpt lat="4.5859580" lon="-74.2056680">
        <ele>2548.7</ele>
        <time>2018-07-10T03:52:46Z</time>
      </trkpt>
      <trkpt lat="4.5858770" lon="-74.2058370">
        <ele>2548.7</ele>
        <time>2018-07-10T03:52:48Z</time>
      </trkpt>
      <trkpt lat="4.5857530" lon="-74.2060770">
        <ele>2548.7</ele>
        <time>2018-07-10T03:52:51Z</time>
      </trkpt>
      <trkpt lat="4.5856380" lon="-74.2063170">
        <ele>2548.8</ele>
        <time>2018-07-10T03:52:54Z</time>
      </trkpt>
      <trkpt lat="4.5855220" lon="-74.2065470">
        <ele>2548.8</ele>
        <time>2018-07-10T03:52:57Z</time>
      </trkpt>
      <trkpt lat="4.5854070" lon="-74.2067520">
        <ele>2548.9</ele>
        <time>2018-07-10T03:53:01Z</time>
      </trkpt>
      <trkpt lat="4.5853350" lon="-74.2069270">
        <ele>2548.9</ele>
        <time>2018-07-10T03:53:04Z</time>
      </trkpt>
      <trkpt lat="4.5852550" lon="-74.2071300">
        <ele>2549.0</ele>
        <time>2018-07-10T03:53:07Z</time>
      </trkpt>
      <trkpt lat="4.5851470" lon="-74.2073420">
        <ele>2549.1</ele>
        <time>2018-07-10T03:53:10Z</time>
      </trkpt>
      <trkpt lat="4.5850220" lon="-74.2075620">
        <ele>2549.4</ele>
        <time>2018-07-10T03:53:13Z</time>
      </trkpt>
      <trkpt lat="4.5849070" lon="-74.2077800">
        <ele>2549.8</ele>
        <time>2018-07-10T03:53:16Z</time>
      </trkpt>
      <trkpt lat="4.5848150" lon="-74.2080000">
        <ele>2550.3</ele>
        <time>2018-07-10T03:53:19Z</time>
      </trkpt>
      <trkpt lat="4.5847070" lon="-74.2082170">
        <ele>2551.5</ele>
        <time>2018-07-10T03:53:22Z</time>
      </trkpt>
      <trkpt lat="4.5846070" lon="-74.2084320">
        <ele>2552.0</ele>
        <time>2018-07-10T03:53:25Z</time>
      </trkpt>
      <trkpt lat="4.5845220" lon="-74.2086470">
        <ele>2552.4</ele>
        <time>2018-07-10T03:53:28Z</time>
      </trkpt>
      <trkpt lat="4.5844320" lon="-74.2088500">
        <ele>2553.3</ele>
        <time>2018-07-10T03:53:31Z</time>
      </trkpt>
      <trkpt lat="4.5843330" lon="-74.2090470">
        <ele>2553.9</ele>
        <time>2018-07-10T03:53:34Z</time>
      </trkpt>
      <trkpt lat="4.5842870" lon="-74.2092550">
        <ele>2554.7</ele>
        <time>2018-07-10T03:53:37Z</time>
      </trkpt>
      <trkpt lat="4.5842320" lon="-74.2094600">
        <ele>2556.3</ele>
        <time>2018-07-10T03:53:40Z</time>
      </trkpt>
      <trkpt lat="4.5841600" lon="-74.2096650">
        <ele>2557.8</ele>
        <time>2018-07-10T03:53:43Z</time>
      </trkpt>
      <trkpt lat="4.5840720" lon="-74.2098700">
        <ele>2557.0</ele>
        <time>2018-07-10T03:53:46Z</time>
      </trkpt>
      <trkpt lat="4.5839800" lon="-74.2100600">
        <ele>2556.2</ele>
        <time>2018-07-10T03:53:49Z</time>
      </trkpt>
      <trkpt lat="4.5838780" lon="-74.2102530">
        <ele>2556.6</ele>
        <time>2018-07-10T03:53:52Z</time>
      </trkpt>
      <trkpt lat="4.5837670" lon="-74.2104480">
        <ele>2556.3</ele>
        <time>2018-07-10T03:53:55Z</time>
      </trkpt>
      <trkpt lat="4.5836530" lon="-74.2106370">
        <ele>2555.2</ele>
        <time>2018-07-10T03:53:58Z</time>
      </trkpt>
      <trkpt lat="4.5835570" lon="-74.2108470">
        <ele>2552.9</ele>
        <time>2018-07-10T03:54:01Z</time>
      </trkpt>
      <trkpt lat="4.5834600" lon="-74.2110870">
        <ele>2552.0</ele>
        <time>2018-07-10T03:54:04Z</time>
      </trkpt>
      <trkpt lat="4.5834070" lon="-74.2112620">
        <ele>2551.8</ele>
        <time>2018-07-10T03:54:06Z</time>
      </trkpt>
      <trkpt lat="4.5833650" lon="-74.2114430">
        <ele>2551.7</ele>
        <time>2018-07-10T03:54:08Z</time>
      </trkpt>
      <trkpt lat="4.5833300" lon="-74.2116300">
        <ele>2552.9</ele>
        <time>2018-07-10T03:54:10Z</time>
      </trkpt>
      <trkpt lat="4.5832930" lon="-74.2118180">
        <ele>2555.7</ele>
        <time>2018-07-10T03:54:12Z</time>
      </trkpt>
      <trkpt lat="4.5832620" lon="-74.2120030">
        <ele>2556.9</ele>
        <time>2018-07-10T03:54:14Z</time>
      </trkpt>
      <trkpt lat="4.5832270" lon="-74.2121820">
        <ele>2556.5</ele>
        <time>2018-07-10T03:54:16Z</time>
      </trkpt>
      <trkpt lat="4.5831900" lon="-74.2123650">
        <ele>2556.3</ele>
        <time>2018-07-10T03:54:18Z</time>
      </trkpt>
      <trkpt lat="4.5831430" lon="-74.2125520">
        <ele>2556.1</ele>
        <time>2018-07-10T03:54:20Z</time>
      </trkpt>
      <trkpt lat="4.5830920" lon="-74.2127420">
        <ele>2556.6</ele>
        <time>2018-07-10T03:54:22Z</time>
      </trkpt>
      <trkpt lat="4.5830500" lon="-74.2129330">
        <ele>2556.0</ele>
        <time>2018-07-10T03:54:24Z</time>
      </trkpt>
      <trkpt lat="4.5830070" lon="-74.2131230">
        <ele>2555.5</ele>
        <time>2018-07-10T03:54:26Z</time>
      </trkpt>
      <trkpt lat="4.5829650" lon="-74.2133150">
        <ele>2556.3</ele>
        <time>2018-07-10T03:54:28Z</time>
      </trkpt>
      <trkpt lat="4.5829250" lon="-74.2135030">
        <ele>2557.4</ele>
        <time>2018-07-10T03:54:30Z</time>
      </trkpt>
      <trkpt lat="4.5828820" lon="-74.2136880">
        <ele>2558.8</ele>
        <time>2018-07-10T03:54:32Z</time>
      </trkpt>
      <trkpt lat="4.5828370" lon="-74.2138670">
        <ele>2560.0</ele>
        <time>2018-07-10T03:54:34Z</time>
      </trkpt>
      <trkpt lat="4.5827950" lon="-74.2141220">
        <ele>2560.5</ele>
        <time>2018-07-10T03:54:37Z</time>
      </trkpt>
      <trkpt lat="4.5827750" lon="-74.2143620">
        <ele>2561.0</ele>
        <time>2018-07-10T03:54:40Z</time>
      </trkpt>
      <trkpt lat="4.5827500" lon="-74.2146150">
        <ele>2560.9</ele>
        <time>2018-07-10T03:54:43Z</time>
      </trkpt>
      <trkpt lat="4.5827050" lon="-74.2148600">
        <ele>2560.9</ele>
        <time>2018-07-10T03:54:46Z</time>
      </trkpt>
      <trkpt lat="4.5826570" lon="-74.2151050">
        <ele>2561.2</ele>
        <time>2018-07-10T03:54:49Z</time>
      </trkpt>
      <trkpt lat="4.5825930" lon="-74.2153580">
        <ele>2561.6</ele>
        <time>2018-07-10T03:54:52Z</time>
      </trkpt>
      <trkpt lat="4.5825470" lon="-74.2155980">
        <ele>2561.9</ele>
        <time>2018-07-10T03:54:55Z</time>
      </trkpt>
      <trkpt lat="4.5824850" lon="-74.2158430">
        <ele>2562.1</ele>
        <time>2018-07-10T03:54:58Z</time>
      </trkpt>
      <trkpt lat="4.5824300" lon="-74.2160900">
        <ele>2562.3</ele>
        <time>2018-07-10T03:55:01Z</time>
      </trkpt>
      <trkpt lat="4.5823650" lon="-74.2163380">
        <ele>2563.4</ele>
        <time>2018-07-10T03:55:04Z</time>
      </trkpt>
      <trkpt lat="4.5823100" lon="-74.2165980">
        <ele>2563.9</ele>
        <time>2018-07-10T03:55:07Z</time>
      </trkpt>
      <trkpt lat="4.5822380" lon="-74.2168550">
        <ele>2563.7</ele>
        <time>2018-07-10T03:55:10Z</time>
      </trkpt>
      <trkpt lat="4.5821780" lon="-74.2171150">
        <ele>2563.3</ele>
        <time>2018-07-10T03:55:13Z</time>
      </trkpt>
      <trkpt lat="4.5821370" lon="-74.2172920">
        <ele>2563.0</ele>
        <time>2018-07-10T03:55:15Z</time>
      </trkpt>
      <trkpt lat="4.5820970" lon="-74.2174720">
        <ele>2562.9</ele>
        <time>2018-07-10T03:55:17Z</time>
      </trkpt>
      <trkpt lat="4.5820550" lon="-74.2176480">
        <ele>2562.7</ele>
        <time>2018-07-10T03:55:19Z</time>
      </trkpt>
      <trkpt lat="4.5820020" lon="-74.2179050">
        <ele>2562.4</ele>
        <time>2018-07-10T03:55:22Z</time>
      </trkpt>
      <trkpt lat="4.5819480" lon="-74.2181530">
        <ele>2562.1</ele>
        <time>2018-07-10T03:55:25Z</time>
      </trkpt>
      <trkpt lat="4.5818870" lon="-74.2184130">
        <ele>2561.6</ele>
        <time>2018-07-10T03:55:28Z</time>
      </trkpt>
      <trkpt lat="4.5818200" lon="-74.2186700">
        <ele>2561.0</ele>
        <time>2018-07-10T03:55:31Z</time>
      </trkpt>
      <trkpt lat="4.5817550" lon="-74.2189230">
        <ele>2560.5</ele>
        <time>2018-07-10T03:55:34Z</time>
      </trkpt>
      <trkpt lat="4.5827630" lon="-74.2193530">
        <ele>2560.3</ele>
        <time>2018-07-10T03:56:27Z</time>
      </trkpt>
      <trkpt lat="4.5827870" lon="-74.2191700">
        <ele>2561.0</ele>
        <time>2018-07-10T03:56:31Z</time>
      </trkpt>
      <trkpt lat="4.5828150" lon="-74.2189570">
        <ele>2561.8</ele>
        <time>2018-07-10T03:56:36Z</time>
      </trkpt>
      <trkpt lat="4.5828550" lon="-74.2187400">
        <ele>2561.5</ele>
        <time>2018-07-10T03:56:42Z</time>
      </trkpt>
      <trkpt lat="4.5829100" lon="-74.2185280">
        <ele>2560.0</ele>
        <time>2018-07-10T03:56:47Z</time>
      </trkpt>
      <trkpt lat="4.5829550" lon="-74.2183480">
        <ele>2560.2</ele>
        <time>2018-07-10T03:56:51Z</time>
      </trkpt>
      <trkpt lat="4.5830200" lon="-74.2181380">
        <ele>2561.0</ele>
        <time>2018-07-10T03:56:56Z</time>
      </trkpt>
      <trkpt lat="4.5830580" lon="-74.2179550">
        <ele>2562.1</ele>
        <time>2018-07-10T03:57:00Z</time>
      </trkpt>
      <trkpt lat="4.5830850" lon="-74.2177500">
        <ele>2561.9</ele>
        <time>2018-07-10T03:57:05Z</time>
      </trkpt>
      <trkpt lat="4.5829420" lon="-74.2176050">
        <ele>2561.1</ele>
        <time>2018-07-10T03:57:14Z</time>
      </trkpt>
      <trkpt lat="4.5827730" lon="-74.2175300">
        <ele>2561.6</ele>
        <time>2018-07-10T03:57:21Z</time>
      </trkpt>
      <trkpt lat="4.5825880" lon="-74.2174650">
        <ele>2562.2</ele>
        <time>2018-07-10T03:57:29Z</time>
      </trkpt>
      <trkpt lat="4.5824120" lon="-74.2174020">
        <ele>2563.4</ele>
        <time>2018-07-10T03:57:35Z</time>
      </trkpt>
      <trkpt lat="4.5822120" lon="-74.2173280">
        <ele>2563.0</ele>
        <time>2018-07-10T03:57:42Z</time>
      </trkpt>
      <trkpt lat="4.5820300" lon="-74.2172680">
        <ele>2563.0</ele>
        <time>2018-07-10T03:57:50Z</time>
      </trkpt>
      <trkpt lat="4.5818400" lon="-74.2172100">
        <ele>2562.5</ele>
        <time>2018-07-10T03:57:56Z</time>
      </trkpt>
      <trkpt lat="4.5816430" lon="-74.2171430">
        <ele>2562.9</ele>
        <time>2018-07-10T03:58:02Z</time>
      </trkpt>
      <trkpt lat="4.5814530" lon="-74.2170850">
        <ele>2563.0</ele>
        <time>2018-07-10T03:58:07Z</time>
      </trkpt>
      <trkpt lat="4.5812350" lon="-74.2170570">
        <ele>2563.0</ele>
        <time>2018-07-10T03:58:13Z</time>
      </trkpt>
      <trkpt lat="4.5810130" lon="-74.2170070">
        <ele>2563.0</ele>
        <time>2018-07-10T03:58:18Z</time>
      </trkpt>
      <trkpt lat="4.5808380" lon="-74.2169550">
        <ele>2563.0</ele>
        <time>2018-07-10T03:58:22Z</time>
      </trkpt>
      <trkpt lat="4.5806420" lon="-74.2169020">
        <ele>2563.1</ele>
        <time>2018-07-10T03:58:27Z</time>
      </trkpt>
      <trkpt lat="4.5804530" lon="-74.2168450">
        <ele>2563.6</ele>
        <time>2018-07-10T03:58:32Z</time>
      </trkpt>
      <trkpt lat="4.5802800" lon="-74.2167970">
        <ele>2564.0</ele>
        <time>2018-07-10T03:58:37Z</time>
      </trkpt>
      <trkpt lat="4.5800780" lon="-74.2167600">
        <ele>2564.1</ele>
        <time>2018-07-10T03:58:44Z</time>
      </trkpt>
      <trkpt lat="4.5799020" lon="-74.2168770">
        <ele>2564.5</ele>
        <time>2018-07-10T03:58:50Z</time>
      </trkpt>
      <trkpt lat="4.5798250" lon="-74.2170470">
        <ele>2564.9</ele>
        <time>2018-07-10T03:58:55Z</time>
      </trkpt>
      <trkpt lat="4.5797320" lon="-74.2172270">
        <ele>2565.3</ele>
        <time>2018-07-10T03:59:00Z</time>
      </trkpt>
      <trkpt lat="4.5796180" lon="-74.2174000">
        <ele>2565.8</ele>
        <time>2018-07-10T03:59:05Z</time>
      </trkpt>
      <trkpt lat="4.5795030" lon="-74.2175770">
        <ele>2566.2</ele>
        <time>2018-07-10T03:59:11Z</time>
      </trkpt>
      <trkpt lat="4.5793880" lon="-74.2177320">
        <ele>2566.6</ele>
        <time>2018-07-10T03:59:17Z</time>
      </trkpt>
      <trkpt lat="4.5793020" lon="-74.2179030">
        <ele>2567.0</ele>
        <time>2018-07-10T03:59:23Z</time>
      </trkpt>
      <trkpt lat="4.5792280" lon="-74.2180750">
        <ele>2567.5</ele>
        <time>2018-07-10T03:59:31Z</time>
      </trkpt>
      <trkpt lat="4.5790780" lon="-74.2179400">
        <ele>2568.2</ele>
        <time>2018-07-10T03:59:41Z</time>
      </trkpt>
      <trkpt lat="4.5789180" lon="-74.2177980">
        <ele>2568.1</ele>
        <time>2018-07-10T03:59:47Z</time>
      </trkpt>
      <trkpt lat="4.5788000" lon="-74.2176520">
        <ele>2568.0</ele>
        <time>2018-07-10T03:59:52Z</time>
      </trkpt>
      <trkpt lat="4.5786930" lon="-74.2174850">
        <ele>2567.5</ele>
        <time>2018-07-10T03:59:57Z</time>
      </trkpt>
      <trkpt lat="4.5785720" lon="-74.2173300">
        <ele>2567.1</ele>
        <time>2018-07-10T04:00:02Z</time>
      </trkpt>
      <trkpt lat="4.5784530" lon="-74.2171850">
        <ele>2567.2</ele>
        <time>2018-07-10T04:00:06Z</time>
      </trkpt>
      <trkpt lat="4.5783030" lon="-74.2170250">
        <ele>2567.0</ele>
        <time>2018-07-10T04:00:11Z</time>
      </trkpt>
      <trkpt lat="4.5781800" lon="-74.2168920">
        <ele>2567.0</ele>
        <time>2018-07-10T04:00:18Z</time>
      </trkpt>
      <trkpt lat="4.5780370" lon="-74.2170020">
        <ele>2566.8</ele>
        <time>2018-07-10T04:00:24Z</time>
      </trkpt>
      <trkpt lat="4.5779170" lon="-74.2171620">
        <ele>2567.1</ele>
        <time>2018-07-10T04:00:29Z</time>
      </trkpt>
      <trkpt lat="4.5778000" lon="-74.2173220">
        <ele>2567.0</ele>
        <time>2018-07-10T04:00:34Z</time>
      </trkpt>
      <trkpt lat="4.5776850" lon="-74.2174770">
        <ele>2567.0</ele>
        <time>2018-07-10T04:00:39Z</time>
      </trkpt>
      <trkpt lat="4.5775430" lon="-74.2176220">
        <ele>2568.0</ele>
        <time>2018-07-10T04:00:44Z</time>
      </trkpt>
      <trkpt lat="4.5774200" lon="-74.2177870">
        <ele>2567.3</ele>
        <time>2018-07-10T04:00:50Z</time>
      </trkpt>
      <trkpt lat="4.5773000" lon="-74.2179300">
        <ele>2566.8</ele>
        <time>2018-07-10T04:00:56Z</time>
      </trkpt>
      <trkpt lat="4.5771830" lon="-74.2180920">
        <ele>2566.0</ele>
        <time>2018-07-10T04:01:02Z</time>
      </trkpt>
      <trkpt lat="4.5770400" lon="-74.2182370">
        <ele>2566.1</ele>
        <time>2018-07-10T04:01:06Z</time>
      </trkpt>
      <trkpt lat="4.5769180" lon="-74.2184020">
        <ele>2564.8</ele>
        <time>2018-07-10T04:01:10Z</time>
      </trkpt>
      <trkpt lat="4.5767130" lon="-74.2183350">
        <ele>2564.7</ele>
        <time>2018-07-10T04:01:16Z</time>
      </trkpt>
      <trkpt lat="4.5765280" lon="-74.2182330">
        <ele>2563.2</ele>
        <time>2018-07-10T04:01:20Z</time>
      </trkpt>
      <trkpt lat="4.5763470" lon="-74.2181980">
        <ele>2562.7</ele>
        <time>2018-07-10T04:01:24Z</time>
      </trkpt>
      <trkpt lat="4.5762220" lon="-74.2183670">
        <ele>2562.4</ele>
        <time>2018-07-10T04:01:29Z</time>
      </trkpt>
      <trkpt lat="4.5761300" lon="-74.2185270">
        <ele>2559.4</ele>
        <time>2018-07-10T04:01:33Z</time>
      </trkpt>
      <trkpt lat="4.5760030" lon="-74.2186870">
        <ele>2558.0</ele>
        <time>2018-07-10T04:01:37Z</time>
      </trkpt>
      <trkpt lat="4.5758530" lon="-74.2187880">
        <ele>2558.0</ele>
        <time>2018-07-10T04:01:41Z</time>
      </trkpt>
      <trkpt lat="4.5756650" lon="-74.2187720">
        <ele>2557.3</ele>
        <time>2018-07-10T04:01:46Z</time>
      </trkpt>
      <trkpt lat="4.5754730" lon="-74.2186920">
        <ele>2557.4</ele>
        <time>2018-07-10T04:01:51Z</time>
      </trkpt>
      <trkpt lat="4.5753020" lon="-74.2186120">
        <ele>2558.0</ele>
        <time>2018-07-10T04:01:57Z</time>
      </trkpt>
      <trkpt lat="4.5751450" lon="-74.2184980">
        <ele>2558.0</ele>
        <time>2018-07-10T04:02:04Z</time>
      </trkpt>
      <trkpt lat="4.5749780" lon="-74.2183830">
        <ele>2558.2</ele>
        <time>2018-07-10T04:02:12Z</time>
      </trkpt>
      <trkpt lat="4.5749730" lon="-74.2182020">
        <ele>2559.0</ele>
        <time>2018-07-10T04:04:40Z</time>
      </trkpt>
    </trkseg>
  </trk>
</gpx>
